<?xml version="1.0" encoding="UTF-8" standalone="no" ?><gpx xmlns="http://www.topografix.com/GPX/1/1" xmlns:gpxx="http://www.garmin.com/xmlschemas/GpxExtensions/v3" xmlns:wptx1="http://www.garmin.com/xmlschemas/WaypointExtension/v1" xmlns:gpxtpx="http://www.garmin.com/xmlschemas/TrackPointExtension/v1" creator="Dakota 20" version="1.1" xmlns:xsi="http://www.w3.org/2001/XMLSchema-instance" xsi:schemaLocation="http://www.topografix.com/GPX/1/1 http://www.topografix.com/GPX/1/1/gpx.xsd http://www.garmin.com/xmlschemas/GpxExtensions/v3 http://www8.garmin.com/xmlschemas/GpxExtensionsv3.xsd http://www.garmin.com/xmlschemas/WaypointExtension/v1 http://www8.garmin.com/xmlschemas/WaypointExtensionv1.xsd http://www.garmin.com/xmlschemas/TrackPointExtension/v1 http://www.garmin.com/xmlschemas/TrackPointExtensionv1.xsd"><metadata><link href="http://www.garmin.com"><text>Garmin International</text></link><time>2015-05-27T16:05:05Z</time></metadata><trk><name>Current Track: 27 MAY 2015 10:11</name><extensions><gpxx:TrackExtension><gpxx:DisplayColor>Cyan</gpxx:DisplayColor></gpxx:TrackExtension></extensions><trkseg><trkpt lat="51.8366151676" lon="-2.1013753116"><ele>285.65</ele><time>2015-05-27T09:11:05Z</time></trkpt><trkpt lat="51.8366275728" lon="-2.1013800055"><ele>284.69</ele><time>2015-05-27T09:11:25Z</time></trkpt><trkpt lat="51.8365503754" lon="-2.1014839411"><ele>285.65</ele><time>2015-05-27T09:11:37Z</time></trkpt><trkpt lat="51.8363837432" lon="-2.1015206538"><ele>286.61</ele><time>2015-05-27T09:11:51Z</time></trkpt><trkpt lat="51.8363064621" lon="-2.1015734598"><ele>287.57</ele><time>2015-05-27T09:12:02Z</time></trkpt><trkpt lat="51.8362056278" lon="-2.1015990246"><ele>289.01</ele><time>2015-05-27T09:12:14Z</time></trkpt><trkpt lat="51.8361563422" lon="-2.1016217396"><ele>289.01</ele><time>2015-05-27T09:12:30Z</time></trkpt><trkpt lat="51.8361584377" lon="-2.1016214881"><ele>288.53</ele><time>2015-05-27T09:12:53Z</time></trkpt><trkpt lat="51.8361539952" lon="-2.1016197279"><ele>289.01</ele><time>2015-05-27T09:13:09Z</time></trkpt><trkpt lat="51.8361171149" lon="-2.1015778184"><ele>288.53</ele><time>2015-05-27T09:13:24Z</time></trkpt><trkpt lat="51.8360736966" lon="-2.1015191451"><ele>279.88</ele><time>2015-05-27T09:13:31Z</time></trkpt><trkpt lat="51.8360679969" lon="-2.1015087515"><ele>289.97</ele><time>2015-05-27T09:13:32Z</time></trkpt><trkpt lat="51.8360580225" lon="-2.1014002897"><ele>289.01</ele><time>2015-05-27T09:13:44Z</time></trkpt><trkpt lat="51.8359990139" lon="-2.1011839528"><ele>288.05</ele><time>2015-05-27T09:13:57Z</time></trkpt><trkpt lat="51.8359605409" lon="-2.1010908298"><ele>287.57</ele><time>2015-05-27T09:14:03Z</time></trkpt><trkpt lat="51.8358721118" lon="-2.1009671967"><ele>288.05</ele><time>2015-05-27T09:14:14Z</time></trkpt><trkpt lat="51.8358203117" lon="-2.1007411368"><ele>288.53</ele><time>2015-05-27T09:14:26Z</time></trkpt><trkpt lat="51.8357656617" lon="-2.1005555615"><ele>289.97</ele><time>2015-05-27T09:14:42Z</time></trkpt><trkpt lat="51.8356950860" lon="-2.1003643703"><ele>290.94</ele><time>2015-05-27T09:14:57Z</time></trkpt><trkpt lat="51.8356313836" lon="-2.1001707483"><ele>291.90</ele><time>2015-05-27T09:15:11Z</time></trkpt><trkpt lat="51.8356131110" lon="-2.1001596842"><ele>293.34</ele><time>2015-05-27T09:15:14Z</time></trkpt><trkpt lat="51.8355570361" lon="-2.1000049543"><ele>293.82</ele><time>2015-05-27T09:15:28Z</time></trkpt><trkpt lat="51.8355493248" lon="-2.0999880228"><ele>293.34</ele><time>2015-05-27T09:15:29Z</time></trkpt><trkpt lat="51.8355245981" lon="-2.0998166129"><ele>295.26</ele><time>2015-05-27T09:15:38Z</time></trkpt><trkpt lat="51.8355054874" lon="-2.0996457059"><ele>295.74</ele><time>2015-05-27T09:15:49Z</time></trkpt><trkpt lat="51.8354727980" lon="-2.0995457098"><ele>296.22</ele><time>2015-05-27T09:15:59Z</time></trkpt><trkpt lat="51.8354423717" lon="-2.0994650759"><ele>296.70</ele><time>2015-05-27T09:16:12Z</time></trkpt><trkpt lat="51.8354362529" lon="-2.0994735416"><ele>297.18</ele><time>2015-05-27T09:16:21Z</time></trkpt><trkpt lat="51.8354290444" lon="-2.0994955860"><ele>297.18</ele><time>2015-05-27T09:16:35Z</time></trkpt><trkpt lat="51.8353988696" lon="-2.0995035488"><ele>297.67</ele><time>2015-05-27T09:16:50Z</time></trkpt><trkpt lat="51.8353888951" lon="-2.0995032974"><ele>298.15</ele><time>2015-05-27T09:16:51Z</time></trkpt><trkpt lat="51.8352663517" lon="-2.0994442049"><ele>297.18</ele><time>2015-05-27T09:17:03Z</time></trkpt><trkpt lat="51.8352444749" lon="-2.0994305424"><ele>296.70</ele><time>2015-05-27T09:17:06Z</time></trkpt><trkpt lat="51.8352021463" lon="-2.0994027145"><ele>297.18</ele><time>2015-05-27T09:17:11Z</time></trkpt><trkpt lat="51.8351722229" lon="-2.0993949194"><ele>297.18</ele><time>2015-05-27T09:17:14Z</time></trkpt><trkpt lat="51.8351094425" lon="-2.0993603859"><ele>297.67</ele><time>2015-05-27T09:17:20Z</time></trkpt><trkpt lat="51.8349595740" lon="-2.0992374234"><ele>296.70</ele><time>2015-05-27T09:17:36Z</time></trkpt><trkpt lat="51.8348993082" lon="-2.0991969388"><ele>297.18</ele><time>2015-05-27T09:17:43Z</time></trkpt><trkpt lat="51.8348700553" lon="-2.0991784148"><ele>297.18</ele><time>2015-05-27T09:17:46Z</time></trkpt><trkpt lat="51.8348471727" lon="-2.0991572086"><ele>296.70</ele><time>2015-05-27T09:17:49Z</time></trkpt><trkpt lat="51.8347941153" lon="-2.0991238486"><ele>297.18</ele><time>2015-05-27T09:17:55Z</time></trkpt><trkpt lat="51.8347240426" lon="-2.0990643371"><ele>296.70</ele><time>2015-05-27T09:18:03Z</time></trkpt><trkpt lat="51.8347024173" lon="-2.0990513451"><ele>296.70</ele><time>2015-05-27T09:18:05Z</time></trkpt><trkpt lat="51.8346112221" lon="-2.0989797637"><ele>296.22</ele><time>2015-05-27T09:18:14Z</time></trkpt><trkpt lat="51.8344889302" lon="-2.0988847129"><ele>296.22</ele><time>2015-05-27T09:18:28Z</time></trkpt><trkpt lat="51.8343528081" lon="-2.0987839624"><ele>295.74</ele><time>2015-05-27T09:18:43Z</time></trkpt><trkpt lat="51.8342439272" lon="-2.0987049211"><ele>295.26</ele><time>2015-05-27T09:18:55Z</time></trkpt><trkpt lat="51.8341105711" lon="-2.0985941961"><ele>294.30</ele><time>2015-05-27T09:19:09Z</time></trkpt><trkpt lat="51.8339876086" lon="-2.0985077787"><ele>294.30</ele><time>2015-05-27T09:19:22Z</time></trkpt><trkpt lat="51.8338426854" lon="-2.0983895939"><ele>293.82</ele><time>2015-05-27T09:19:38Z</time></trkpt><trkpt lat="51.8337334692" lon="-2.0982911903"><ele>293.34</ele><time>2015-05-27T09:19:50Z</time></trkpt><trkpt lat="51.8336540926" lon="-2.0982412342"><ele>292.86</ele><time>2015-05-27T09:19:59Z</time></trkpt><trkpt lat="51.8335130252" lon="-2.0981477760"><ele>291.90</ele><time>2015-05-27T09:20:15Z</time></trkpt><trkpt lat="51.8333791662" lon="-2.0980483666"><ele>291.90</ele><time>2015-05-27T09:20:29Z</time></trkpt><trkpt lat="51.8332691956" lon="-2.0979565009"><ele>291.42</ele><time>2015-05-27T09:20:42Z</time></trkpt><trkpt lat="51.8331286311" lon="-2.0978608634"><ele>290.46</ele><time>2015-05-27T09:20:57Z</time></trkpt><trkpt lat="51.8330070935" lon="-2.0977685787"><ele>289.97</ele><time>2015-05-27T09:21:09Z</time></trkpt><trkpt lat="51.8329079356" lon="-2.0976873580"><ele>289.49</ele><time>2015-05-27T09:21:21Z</time></trkpt><trkpt lat="51.8328686245" lon="-2.0976513997"><ele>289.49</ele><time>2015-05-27T09:21:25Z</time></trkpt><trkpt lat="51.8328392878" lon="-2.0976262540"><ele>289.49</ele><time>2015-05-27T09:21:28Z</time></trkpt><trkpt lat="51.8327652756" lon="-2.0975740347"><ele>289.01</ele><time>2015-05-27T09:21:36Z</time></trkpt><trkpt lat="51.8326400500" lon="-2.0974768046"><ele>288.53</ele><time>2015-05-27T09:21:50Z</time></trkpt><trkpt lat="51.8325405568" lon="-2.0974127669"><ele>288.53</ele><time>2015-05-27T09:22:01Z</time></trkpt><trkpt lat="51.8323755171" lon="-2.0972734597"><ele>288.05</ele><time>2015-05-27T09:22:18Z</time></trkpt><trkpt lat="51.8322372157" lon="-2.0971751399"><ele>287.57</ele><time>2015-05-27T09:22:32Z</time></trkpt><trkpt lat="51.8321046978" lon="-2.0970630739"><ele>287.57</ele><time>2015-05-27T09:22:47Z</time></trkpt><trkpt lat="51.8319668155" lon="-2.0969621558"><ele>287.09</ele><time>2015-05-27T09:23:01Z</time></trkpt><trkpt lat="51.8318275921" lon="-2.0968520176"><ele>286.13</ele><time>2015-05-27T09:23:16Z</time></trkpt><trkpt lat="51.8316897098" lon="-2.0967636723"><ele>285.65</ele><time>2015-05-27T09:23:30Z</time></trkpt><trkpt lat="51.8315695133" lon="-2.0966631733"><ele>285.65</ele><time>2015-05-27T09:23:44Z</time></trkpt><trkpt lat="51.8315034639" lon="-2.0966120437"><ele>285.17</ele><time>2015-05-27T09:23:51Z</time></trkpt><trkpt lat="51.8313814234" lon="-2.0965182502"><ele>285.17</ele><time>2015-05-27T09:24:04Z</time></trkpt><trkpt lat="51.8312839419" lon="-2.0964317489"><ele>284.21</ele><time>2015-05-27T09:24:15Z</time></trkpt><trkpt lat="51.8311706185" lon="-2.0962438267"><ele>283.73</ele><time>2015-05-27T09:24:29Z</time></trkpt><trkpt lat="51.8311259430" lon="-2.0960624423"><ele>283.73</ele><time>2015-05-27T09:24:41Z</time></trkpt><trkpt lat="51.8310997915" lon="-2.0959296729"><ele>282.77</ele><time>2015-05-27T09:24:50Z</time></trkpt><trkpt lat="51.8310823571" lon="-2.0958766993"><ele>283.25</ele><time>2015-05-27T09:24:53Z</time></trkpt><trkpt lat="51.8310224265" lon="-2.0956748631"><ele>282.77</ele><time>2015-05-27T09:25:05Z</time></trkpt><trkpt lat="51.8309790920" lon="-2.0954944845"><ele>282.77</ele><time>2015-05-27T09:25:15Z</time></trkpt><trkpt lat="51.8309283815" lon="-2.0952886250"><ele>282.77</ele><time>2015-05-27T09:25:28Z</time></trkpt><trkpt lat="51.8308843765" lon="-2.0951421093"><ele>283.73</ele><time>2015-05-27T09:25:37Z</time></trkpt><trkpt lat="51.8308715522" lon="-2.0951053128"><ele>283.73</ele><time>2015-05-27T09:25:40Z</time></trkpt><trkpt lat="51.8308070116" lon="-2.0948637463"><ele>284.69</ele><time>2015-05-27T09:25:54Z</time></trkpt><trkpt lat="51.8307392858" lon="-2.0946177375"><ele>285.17</ele><time>2015-05-27T09:26:08Z</time></trkpt><trkpt lat="51.8307011481" lon="-2.0944639295"><ele>285.65</ele><time>2015-05-27T09:26:19Z</time></trkpt><trkpt lat="51.8306931015" lon="-2.0944261272"><ele>285.65</ele><time>2015-05-27T09:26:21Z</time></trkpt><trkpt lat="51.8306745775" lon="-2.0943563059"><ele>285.65</ele><time>2015-05-27T09:26:26Z</time></trkpt><trkpt lat="51.8306089472" lon="-2.0941204391"><ele>287.09</ele><time>2015-05-27T09:26:42Z</time></trkpt><trkpt lat="51.8305407185" lon="-2.0938724186"><ele>287.57</ele><time>2015-05-27T09:26:57Z</time></trkpt><trkpt lat="51.8304777704" lon="-2.0936372224"><ele>288.05</ele><time>2015-05-27T09:27:11Z</time></trkpt><trkpt lat="51.8304143194" lon="-2.0934104919"><ele>289.01</ele><time>2015-05-27T09:27:25Z</time></trkpt><trkpt lat="51.8303664587" lon="-2.0932106674"><ele>289.97</ele><time>2015-05-27T09:27:38Z</time></trkpt><trkpt lat="51.8303607590" lon="-2.0931944065"><ele>289.49</ele><time>2015-05-27T09:27:53Z</time></trkpt><trkpt lat="51.8303197715" lon="-2.0930340607"><ele>290.94</ele><time>2015-05-27T09:28:04Z</time></trkpt><trkpt lat="51.8302797060" lon="-2.0927849505"><ele>291.90</ele><time>2015-05-27T09:28:17Z</time></trkpt><trkpt lat="51.8302439991" lon="-2.0925401151"><ele>291.42</ele><time>2015-05-27T09:28:30Z</time></trkpt><trkpt lat="51.8302344438" lon="-2.0923260413"><ele>290.94</ele><time>2015-05-27T09:28:42Z</time></trkpt><trkpt lat="51.8302340247" lon="-2.0923167374"><ele>290.94</ele><time>2015-05-27T09:28:51Z</time></trkpt><trkpt lat="51.8302243855" lon="-2.0921703894"><ele>290.94</ele><time>2015-05-27T09:29:01Z</time></trkpt><trkpt lat="51.8302032631" lon="-2.0919011626"><ele>290.46</ele><time>2015-05-27T09:29:15Z</time></trkpt><trkpt lat="51.8302061129" lon="-2.0918680541"><ele>290.46</ele><time>2015-05-27T09:29:17Z</time></trkpt><trkpt lat="51.8302177638" lon="-2.0918063633"><ele>290.46</ele><time>2015-05-27T09:29:21Z</time></trkpt><trkpt lat="51.8301894329" lon="-2.0916235540"><ele>290.46</ele><time>2015-05-27T09:29:34Z</time></trkpt><trkpt lat="51.8301870860" lon="-2.0915478654"><ele>290.46</ele><time>2015-05-27T09:29:38Z</time></trkpt><trkpt lat="51.8301783688" lon="-2.0914621186"><ele>289.97</ele><time>2015-05-27T09:29:42Z</time></trkpt><trkpt lat="51.8301642034" lon="-2.0913798921"><ele>289.97</ele><time>2015-05-27T09:29:49Z</time></trkpt><trkpt lat="51.8301422428" lon="-2.0911618788"><ele>289.49</ele><time>2015-05-27T09:30:02Z</time></trkpt><trkpt lat="51.8301212881" lon="-2.0910356473"><ele>289.97</ele><time>2015-05-27T09:30:09Z</time></trkpt><trkpt lat="51.8300751876" lon="-2.0908843540"><ele>289.97</ele><time>2015-05-27T09:30:16Z</time></trkpt><trkpt lat="51.8300663028" lon="-2.0908311289"><ele>289.97</ele><time>2015-05-27T09:30:18Z</time></trkpt><trkpt lat="51.8300182745" lon="-2.0905714575"><ele>289.97</ele><time>2015-05-27T09:30:32Z</time></trkpt><trkpt lat="51.8299697433" lon="-2.0903422963"><ele>289.97</ele><time>2015-05-27T09:30:46Z</time></trkpt><trkpt lat="51.8299663905" lon="-2.0903231855"><ele>289.97</ele><time>2015-05-27T09:30:51Z</time></trkpt><trkpt lat="51.8299612775" lon="-2.0902129635"><ele>289.97</ele><time>2015-05-27T09:30:59Z</time></trkpt><trkpt lat="51.8299122434" lon="-2.0899652783"><ele>289.49</ele><time>2015-05-27T09:31:13Z</time></trkpt><trkpt lat="51.8298874330" lon="-2.0897584967"><ele>289.01</ele><time>2015-05-27T09:31:24Z</time></trkpt><trkpt lat="51.8298834935" lon="-2.0897346921"><ele>289.01</ele><time>2015-05-27T09:31:26Z</time></trkpt><trkpt lat="51.8298762012" lon="-2.0896595065"><ele>289.01</ele><time>2015-05-27T09:31:30Z</time></trkpt><trkpt lat="51.8298642989" lon="-2.0895873383"><ele>288.53</ele><time>2015-05-27T09:31:35Z</time></trkpt><trkpt lat="51.8298551627" lon="-2.0895132422"><ele>288.53</ele><time>2015-05-27T09:31:39Z</time></trkpt><trkpt lat="51.8298148457" lon="-2.0892704185"><ele>288.05</ele><time>2015-05-27T09:31:51Z</time></trkpt><trkpt lat="51.8297951482" lon="-2.0891306084"><ele>287.57</ele><time>2015-05-27T09:31:59Z</time></trkpt><trkpt lat="51.8297895323" lon="-2.0890662353"><ele>287.09</ele><time>2015-05-27T09:32:03Z</time></trkpt><trkpt lat="51.8297726847" lon="-2.0889946539"><ele>288.05</ele><time>2015-05-27T09:32:07Z</time></trkpt><trkpt lat="51.8297347985" lon="-2.0888238307"><ele>287.57</ele><time>2015-05-27T09:32:15Z</time></trkpt><trkpt lat="51.8297236506" lon="-2.0887396764"><ele>286.61</ele><time>2015-05-27T09:32:28Z</time></trkpt><trkpt lat="51.8296996783" lon="-2.0884929132"><ele>287.09</ele><time>2015-05-27T09:32:42Z</time></trkpt><trkpt lat="51.8296643067" lon="-2.0882462338"><ele>286.13</ele><time>2015-05-27T09:32:55Z</time></trkpt><trkpt lat="51.8296524044" lon="-2.0881604869"><ele>286.13</ele><time>2015-05-27T09:33:06Z</time></trkpt><trkpt lat="51.8296465371" lon="-2.0881285518"><ele>286.13</ele><time>2015-05-27T09:33:10Z</time></trkpt><trkpt lat="51.8296353053" lon="-2.0880699623"><ele>286.13</ele><time>2015-05-27T09:33:14Z</time></trkpt><trkpt lat="51.8296218105" lon="-2.0879261289"><ele>286.13</ele><time>2015-05-27T09:33:27Z</time></trkpt><trkpt lat="51.8296016939" lon="-2.0877566468"><ele>285.65</ele><time>2015-05-27T09:33:37Z</time></trkpt><trkpt lat="51.8295894563" lon="-2.0876745880"><ele>285.17</ele><time>2015-05-27T09:33:41Z</time></trkpt><trkpt lat="51.8295581918" lon="-2.0874311775"><ele>285.17</ele><time>2015-05-27T09:33:56Z</time></trkpt><trkpt lat="51.8295167014" lon="-2.0871999208"><ele>285.17</ele><time>2015-05-27T09:34:09Z</time></trkpt><trkpt lat="51.8294878677" lon="-2.0869379025"><ele>285.17</ele><time>2015-05-27T09:34:24Z</time></trkpt><trkpt lat="51.8294602074" lon="-2.0867839269"><ele>285.65</ele><time>2015-05-27T09:34:33Z</time></trkpt><trkpt lat="51.8294442818" lon="-2.0865487307"><ele>284.69</ele><time>2015-05-27T09:34:46Z</time></trkpt><trkpt lat="51.8294380791" lon="-2.0865025464"><ele>285.17</ele><time>2015-05-27T09:34:49Z</time></trkpt><trkpt lat="51.8294262607" lon="-2.0864288695"><ele>284.69</ele><time>2015-05-27T09:34:53Z</time></trkpt><trkpt lat="51.8294090778" lon="-2.0863380935"><ele>284.69</ele><time>2015-05-27T09:34:58Z</time></trkpt><trkpt lat="51.8294047192" lon="-2.0862650871"><ele>284.69</ele><time>2015-05-27T09:35:02Z</time></trkpt><trkpt lat="51.8293944933" lon="-2.0862008817"><ele>284.69</ele><time>2015-05-27T09:35:06Z</time></trkpt><trkpt lat="51.8293817528" lon="-2.0861350838"><ele>284.21</ele><time>2015-05-27T09:35:10Z</time></trkpt><trkpt lat="51.8293446209" lon="-2.0859195851"><ele>284.21</ele><time>2015-05-27T09:35:22Z</time></trkpt><trkpt lat="51.8293433636" lon="-2.0859110355"><ele>284.21</ele><time>2015-05-27T09:35:23Z</time></trkpt><trkpt lat="51.8293424416" lon="-2.0858236961"><ele>284.21</ele><time>2015-05-27T09:35:27Z</time></trkpt><trkpt lat="51.8293184694" lon="-2.0856505260"><ele>284.69</ele><time>2015-05-27T09:35:41Z</time></trkpt><trkpt lat="51.8293186370" lon="-2.0856480952"><ele>284.21</ele><time>2015-05-27T09:35:43Z</time></trkpt><trkpt lat="51.8293115962" lon="-2.0855878294"><ele>284.21</ele><time>2015-05-27T09:35:46Z</time></trkpt><trkpt lat="51.8293017894" lon="-2.0854586642"><ele>284.21</ele><time>2015-05-27T09:35:53Z</time></trkpt><trkpt lat="51.8292991072" lon="-2.0854161680"><ele>283.73</ele><time>2015-05-27T09:35:55Z</time></trkpt><trkpt lat="51.8292639032" lon="-2.0852772798"><ele>283.25</ele><time>2015-05-27T09:36:09Z</time></trkpt><trkpt lat="51.8292656634" lon="-2.0852797944"><ele>283.25</ele><time>2015-05-27T09:36:16Z</time></trkpt><trkpt lat="51.8292547669" lon="-2.0852307603"><ele>283.25</ele><time>2015-05-27T09:36:19Z</time></trkpt><trkpt lat="51.8292343151" lon="-2.0850999188"><ele>283.25</ele><time>2015-05-27T09:36:26Z</time></trkpt><trkpt lat="51.8292399310" lon="-2.0850265771"><ele>282.77</ele><time>2015-05-27T09:36:30Z</time></trkpt><trkpt lat="51.8292370811" lon="-2.0849135891"><ele>282.28</ele><time>2015-05-27T09:36:36Z</time></trkpt><trkpt lat="51.8291969318" lon="-2.0846680831"><ele>282.28</ele><time>2015-05-27T09:36:50Z</time></trkpt><trkpt lat="51.8291817605" lon="-2.0845086593"><ele>282.28</ele><time>2015-05-27T09:36:58Z</time></trkpt><trkpt lat="51.8291770667" lon="-2.0844452921"><ele>282.28</ele><time>2015-05-27T09:37:02Z</time></trkpt><trkpt lat="51.8291741330" lon="-2.0844024606"><ele>282.77</ele><time>2015-05-27T09:37:05Z</time></trkpt><trkpt lat="51.8291624822" lon="-2.0843363274"><ele>282.77</ele><time>2015-05-27T09:37:13Z</time></trkpt><trkpt lat="51.8291649967" lon="-2.0842601359"><ele>282.28</ele><time>2015-05-27T09:37:17Z</time></trkpt><trkpt lat="51.8291307986" lon="-2.0840505045"><ele>282.28</ele><time>2015-05-27T09:37:29Z</time></trkpt><trkpt lat="51.8291107658" lon="-2.0839623269"><ele>282.28</ele><time>2015-05-27T09:37:34Z</time></trkpt><trkpt lat="51.8291071616" lon="-2.0838063397"><ele>282.77</ele><time>2015-05-27T09:37:42Z</time></trkpt><trkpt lat="51.8290985283" lon="-2.0837287232"><ele>283.25</ele><time>2015-05-27T09:37:46Z</time></trkpt><trkpt lat="51.8290592171" lon="-2.0835794415"><ele>283.25</ele><time>2015-05-27T09:37:54Z</time></trkpt><trkpt lat="51.8290210795" lon="-2.0834181737"><ele>284.21</ele><time>2015-05-27T09:38:09Z</time></trkpt><trkpt lat="51.8290777411" lon="-2.0833393838"><ele>284.21</ele><time>2015-05-27T09:38:20Z</time></trkpt><trkpt lat="51.8292147852" lon="-2.0831980649"><ele>284.21</ele><time>2015-05-27T09:38:35Z</time></trkpt><trkpt lat="51.8293438666" lon="-2.0830585063"><ele>284.69</ele><time>2015-05-27T09:38:49Z</time></trkpt><trkpt lat="51.8293322995" lon="-2.0830799639"><ele>274.11</ele><time>2015-05-27T09:39:03Z</time></trkpt><trkpt lat="51.8293326348" lon="-2.0830790419"><ele>289.01</ele><time>2015-05-27T09:39:04Z</time></trkpt><trkpt lat="51.8293327186" lon="-2.0830788743"><ele>285.17</ele><time>2015-05-27T09:39:05Z</time></trkpt><trkpt lat="51.8293345626" lon="-2.0830829814"><ele>280.84</ele><time>2015-05-27T09:39:18Z</time></trkpt><trkpt lat="51.8293348141" lon="-2.0830831490"><ele>284.21</ele><time>2015-05-27T09:39:19Z</time></trkpt><trkpt lat="51.8293607142" lon="-2.0830618590"><ele>285.17</ele><time>2015-05-27T09:39:37Z</time></trkpt><trkpt lat="51.8294099998" lon="-2.0829906128"><ele>281.80</ele><time>2015-05-27T09:39:42Z</time></trkpt><trkpt lat="51.8294199742" lon="-2.0829770342"><ele>285.65</ele><time>2015-05-27T09:39:43Z</time></trkpt><trkpt lat="51.8295902945" lon="-2.0827655587"><ele>287.09</ele><time>2015-05-27T09:40:00Z</time></trkpt><trkpt lat="51.8296092376" lon="-2.0827335399"><ele>282.28</ele><time>2015-05-27T09:40:02Z</time></trkpt><trkpt lat="51.8296179548" lon="-2.0827213023"><ele>282.77</ele><time>2015-05-27T09:40:03Z</time></trkpt><trkpt lat="51.8296966609" lon="-2.0826159418"><ele>287.09</ele><time>2015-05-27T09:40:11Z</time></trkpt><trkpt lat="51.8297056295" lon="-2.0825982559"><ele>286.61</ele><time>2015-05-27T09:40:12Z</time></trkpt><trkpt lat="51.8297333736" lon="-2.0825580228"><ele>281.80</ele><time>2015-05-27T09:40:15Z</time></trkpt><trkpt lat="51.8297423422" lon="-2.0825420972"><ele>286.61</ele><time>2015-05-27T09:40:16Z</time></trkpt><trkpt lat="51.8297695834" lon="-2.0824884530"><ele>282.28</ele><time>2015-05-27T09:40:19Z</time></trkpt><trkpt lat="51.8297964893" lon="-2.0824391674"><ele>285.17</ele><time>2015-05-27T09:40:22Z</time></trkpt><trkpt lat="51.8299142551" lon="-2.0822654106"><ele>281.80</ele><time>2015-05-27T09:40:33Z</time></trkpt><trkpt lat="51.8299462739" lon="-2.0822357386"><ele>284.21</ele><time>2015-05-27T09:40:36Z</time></trkpt><trkpt lat="51.8300660513" lon="-2.0820844453"><ele>280.84</ele><time>2015-05-27T09:40:47Z</time></trkpt><trkpt lat="51.8300771993" lon="-2.0820722077"><ele>282.28</ele><time>2015-05-27T09:40:48Z</time></trkpt><trkpt lat="51.8301000819" lon="-2.0820478164"><ele>283.73</ele><time>2015-05-27T09:40:50Z</time></trkpt><trkpt lat="51.8302375451" lon="-2.0819095150"><ele>280.36</ele><time>2015-05-27T09:41:01Z</time></trkpt><trkpt lat="51.8302671332" lon="-2.0818658452"><ele>281.80</ele><time>2015-05-27T09:41:05Z</time></trkpt><trkpt lat="51.8302858248" lon="-2.0818248577"><ele>278.44</ele><time>2015-05-27T09:41:08Z</time></trkpt><trkpt lat="51.8303308357" lon="-2.0817643404"><ele>281.80</ele><time>2015-05-27T09:41:12Z</time></trkpt><trkpt lat="51.8304259703" lon="-2.0816654339"><ele>278.44</ele><time>2015-05-27T09:41:20Z</time></trkpt><trkpt lat="51.8304847274" lon="-2.0816117898"><ele>277.48</ele><time>2015-05-27T09:41:25Z</time></trkpt><trkpt lat="51.8305475917" lon="-2.0815638453"><ele>281.32</ele><time>2015-05-27T09:41:29Z</time></trkpt><trkpt lat="51.8305706419" lon="-2.0815353468"><ele>277.00</ele><time>2015-05-27T09:41:31Z</time></trkpt><trkpt lat="51.8306386191" lon="-2.0814857259"><ele>277.48</ele><time>2015-05-27T09:41:38Z</time></trkpt><trkpt lat="51.8307506014" lon="-2.0813734084"><ele>274.59</ele><time>2015-05-27T09:41:49Z</time></trkpt><trkpt lat="51.8308003899" lon="-2.0813047606"><ele>277.96</ele><time>2015-05-27T09:41:55Z</time></trkpt><trkpt lat="51.8308383599" lon="-2.0812810399"><ele>276.04</ele><time>2015-05-27T09:41:58Z</time></trkpt><trkpt lat="51.8309151381" lon="-2.0812434051"><ele>272.19</ele><time>2015-05-27T09:42:04Z</time></trkpt><trkpt lat="51.8310088478" lon="-2.0811878331"><ele>272.19</ele><time>2015-05-27T09:42:10Z</time></trkpt><trkpt lat="51.8310508411" lon="-2.0811498631"><ele>274.59</ele><time>2015-05-27T09:42:13Z</time></trkpt><trkpt lat="51.8312616460" lon="-2.0810066164"><ele>271.23</ele><time>2015-05-27T09:42:30Z</time></trkpt><trkpt lat="51.8312679324" lon="-2.0810080413"><ele>271.23</ele><time>2015-05-27T09:42:31Z</time></trkpt><trkpt lat="51.8312800862" lon="-2.0810046047"><ele>271.71</ele><time>2015-05-27T09:42:33Z</time></trkpt><trkpt lat="51.8312941678" lon="-2.0809683949"><ele>273.63</ele><time>2015-05-27T09:42:36Z</time></trkpt><trkpt lat="51.8312841095" lon="-2.0809566602"><ele>272.67</ele><time>2015-05-27T09:42:57Z</time></trkpt><trkpt lat="51.8312903121" lon="-2.0809532236"><ele>273.15</ele><time>2015-05-27T09:43:07Z</time></trkpt><trkpt lat="51.8313197326" lon="-2.0808997471"><ele>270.27</ele><time>2015-05-27T09:43:10Z</time></trkpt><trkpt lat="51.8313271087" lon="-2.0808825642"><ele>270.75</ele><time>2015-05-27T09:43:11Z</time></trkpt><trkpt lat="51.8313551042" lon="-2.0808430854"><ele>272.19</ele><time>2015-05-27T09:43:15Z</time></trkpt><trkpt lat="51.8314505741" lon="-2.0807030238"><ele>270.27</ele><time>2015-05-27T09:43:32Z</time></trkpt><trkpt lat="51.8315540906" lon="-2.0805098210"><ele>268.35</ele><time>2015-05-27T09:43:49Z</time></trkpt><trkpt lat="51.8315970898" lon="-2.0804488845"><ele>265.46</ele><time>2015-05-27T09:43:57Z</time></trkpt><trkpt lat="51.8316854350" lon="-2.0802905504"><ele>264.50</ele><time>2015-05-27T09:44:16Z</time></trkpt><trkpt lat="51.8317726906" lon="-2.0802965853"><ele>262.10</ele><time>2015-05-27T09:44:36Z</time></trkpt><trkpt lat="51.8318424281" lon="-2.0802286081"><ele>259.21</ele><time>2015-05-27T09:44:50Z</time></trkpt><trkpt lat="51.8320241477" lon="-2.0801129378"><ele>255.85</ele><time>2015-05-27T09:45:05Z</time></trkpt><trkpt lat="51.8321026023" lon="-2.0800601318"><ele>255.37</ele><time>2015-05-27T09:45:12Z</time></trkpt><trkpt lat="51.8321458530" lon="-2.0800370816"><ele>259.21</ele><time>2015-05-27T09:45:16Z</time></trkpt><trkpt lat="51.8321602698" lon="-2.0800345670"><ele>255.85</ele><time>2015-05-27T09:45:17Z</time></trkpt><trkpt lat="51.8321937975" lon="-2.0800103433"><ele>254.41</ele><time>2015-05-27T09:45:20Z</time></trkpt><trkpt lat="51.8323161732" lon="-2.0799667574"><ele>251.52</ele><time>2015-05-27T09:45:34Z</time></trkpt><trkpt lat="51.8324143253" lon="-2.0799468923"><ele>255.37</ele><time>2015-05-27T09:45:42Z</time></trkpt><trkpt lat="51.8324227072" lon="-2.0799391810"><ele>252.00</ele><time>2015-05-27T09:45:43Z</time></trkpt><trkpt lat="51.8325586617" lon="-2.0798776578"><ele>248.64</ele><time>2015-05-27T09:45:59Z</time></trkpt><trkpt lat="51.8326351885" lon="-2.0798707008"><ele>249.60</ele><time>2015-05-27T09:46:05Z</time></trkpt><trkpt lat="51.8326982204" lon="-2.0798257738"><ele>250.56</ele><time>2015-05-27T09:46:17Z</time></trkpt><trkpt lat="51.8327596597" lon="-2.0797749795"><ele>245.75</ele><time>2015-05-27T09:46:25Z</time></trkpt><trkpt lat="51.8327758368" lon="-2.0797498338"><ele>250.08</ele><time>2015-05-27T09:46:28Z</time></trkpt><trkpt lat="51.8327940255" lon="-2.0797419548"><ele>246.23</ele><time>2015-05-27T09:46:30Z</time></trkpt><trkpt lat="51.8328177463" lon="-2.0797265321"><ele>249.12</ele><time>2015-05-27T09:46:33Z</time></trkpt><trkpt lat="51.8328666966" lon="-2.0797170606"><ele>244.79</ele><time>2015-05-27T09:46:37Z</time></trkpt><trkpt lat="51.8328817841" lon="-2.0797172282"><ele>247.68</ele><time>2015-05-27T09:46:38Z</time></trkpt><trkpt lat="51.8329047505" lon="-2.0797080919"><ele>251.04</ele><time>2015-05-27T09:46:40Z</time></trkpt><trkpt lat="51.8329101149" lon="-2.0796948485"><ele>246.72</ele><time>2015-05-27T09:46:41Z</time></trkpt><trkpt lat="51.8329632562" lon="-2.0796661824"><ele>246.23</ele><time>2015-05-27T09:46:49Z</time></trkpt><trkpt lat="51.8329896592" lon="-2.0796542801"><ele>246.23</ele><time>2015-05-27T09:46:51Z</time></trkpt><trkpt lat="51.8330206722" lon="-2.0796449762"><ele>248.16</ele><time>2015-05-27T09:46:54Z</time></trkpt><trkpt lat="51.8330387771" lon="-2.0796443895"><ele>243.83</ele><time>2015-05-27T09:46:56Z</time></trkpt><trkpt lat="51.8330597319" lon="-2.0796499215"><ele>247.20</ele><time>2015-05-27T09:46:58Z</time></trkpt><trkpt lat="51.8330709636" lon="-2.0796510112"><ele>247.20</ele><time>2015-05-27T09:46:59Z</time></trkpt><trkpt lat="51.8330992945" lon="-2.0796576329"><ele>241.91</ele><time>2015-05-27T09:47:02Z</time></trkpt><trkpt lat="51.8331078440" lon="-2.0796602312"><ele>245.75</ele><time>2015-05-27T09:47:03Z</time></trkpt><trkpt lat="51.8331758212" lon="-2.0796256140"><ele>246.23</ele><time>2015-05-27T09:47:21Z</time></trkpt><trkpt lat="51.8331848737" lon="-2.0796222612"><ele>242.39</ele><time>2015-05-27T09:47:22Z</time></trkpt><trkpt lat="51.8331957702" lon="-2.0796208363"><ele>244.79</ele><time>2015-05-27T09:47:23Z</time></trkpt><trkpt lat="51.8333074171" lon="-2.0795733947"><ele>248.16</ele><time>2015-05-27T09:47:33Z</time></trkpt><trkpt lat="51.8333166372" lon="-2.0795693714"><ele>244.79</ele><time>2015-05-27T09:47:34Z</time></trkpt><trkpt lat="51.8333243486" lon="-2.0795671921"><ele>240.95</ele><time>2015-05-27T09:47:35Z</time></trkpt><trkpt lat="51.8333354127" lon="-2.0795613248"><ele>244.79</ele><time>2015-05-27T09:47:36Z</time></trkpt><trkpt lat="51.8334170524" lon="-2.0795215108"><ele>241.43</ele><time>2015-05-27T09:47:43Z</time></trkpt><trkpt lat="51.8334338162" lon="-2.0795105305"><ele>245.27</ele><time>2015-05-27T09:47:45Z</time></trkpt><trkpt lat="51.8334393483" lon="-2.0795076806"><ele>245.27</ele><time>2015-05-27T09:47:46Z</time></trkpt><trkpt lat="51.8334484007" lon="-2.0795052499"><ele>239.51</ele><time>2015-05-27T09:47:49Z</time></trkpt><trkpt lat="51.8334542681" lon="-2.0795023162"><ele>244.31</ele><time>2015-05-27T09:47:50Z</time></trkpt><trkpt lat="51.8334617279" lon="-2.0794972870"><ele>245.75</ele><time>2015-05-27T09:47:51Z</time></trkpt><trkpt lat="51.8335033860" lon="-2.0794800203"><ele>242.87</ele><time>2015-05-27T09:47:55Z</time></trkpt><trkpt lat="51.8335157912" lon="-2.0794726443"><ele>239.02</ele><time>2015-05-27T09:47:56Z</time></trkpt><trkpt lat="51.8335276935" lon="-2.0794651005"><ele>242.87</ele><time>2015-05-27T09:47:57Z</time></trkpt><trkpt lat="51.8335520849" lon="-2.0794503484"><ele>245.75</ele><time>2015-05-27T09:47:59Z</time></trkpt><trkpt lat="51.8335673399" lon="-2.0794326626"><ele>240.47</ele><time>2015-05-27T09:48:01Z</time></trkpt><trkpt lat="51.8335742969" lon="-2.0794226043"><ele>241.91</ele><time>2015-05-27T09:48:02Z</time></trkpt><trkpt lat="51.8336155359" lon="-2.0793917589"><ele>244.79</ele><time>2015-05-27T09:48:07Z</time></trkpt><trkpt lat="51.8336289469" lon="-2.0793881547"><ele>239.02</ele><time>2015-05-27T09:48:09Z</time></trkpt><trkpt lat="51.8336379156" lon="-2.0793837961"><ele>240.47</ele><time>2015-05-27T09:48:10Z</time></trkpt><trkpt lat="51.8336540926" lon="-2.0793706365"><ele>243.83</ele><time>2015-05-27T09:48:12Z</time></trkpt><trkpt lat="51.8336863630" lon="-2.0793469995"><ele>239.51</ele><time>2015-05-27T09:48:15Z</time></trkpt><trkpt lat="51.8336954154" lon="-2.0793353487"><ele>239.99</ele><time>2015-05-27T09:48:16Z</time></trkpt><trkpt lat="51.8337258417" lon="-2.0792990550"><ele>238.54</ele><time>2015-05-27T09:48:19Z</time></trkpt><trkpt lat="51.8337502331" lon="-2.0792672038"><ele>242.87</ele><time>2015-05-27T09:48:22Z</time></trkpt><trkpt lat="51.8337733671" lon="-2.0792501047"><ele>237.10</ele><time>2015-05-27T09:48:24Z</time></trkpt><trkpt lat="51.8337947410" lon="-2.0792334247"><ele>240.95</ele><time>2015-05-27T09:48:26Z</time></trkpt><trkpt lat="51.8338120915" lon="-2.0792138949"><ele>242.39</ele><time>2015-05-27T09:48:28Z</time></trkpt><trkpt lat="51.8338199705" lon="-2.0792067703"><ele>238.54</ele><time>2015-05-27T09:48:29Z</time></trkpt><trkpt lat="51.8338332139" lon="-2.0791992266"><ele>239.02</ele><time>2015-05-27T09:48:30Z</time></trkpt><trkpt lat="51.8339317851" lon="-2.0790727437"><ele>244.31</ele><time>2015-05-27T09:48:42Z</time></trkpt><trkpt lat="51.8339388259" lon="-2.0790662058"><ele>239.02</ele><time>2015-05-27T09:48:43Z</time></trkpt><trkpt lat="51.8339446094" lon="-2.0790591650"><ele>235.18</ele><time>2015-05-27T09:48:44Z</time></trkpt><trkpt lat="51.8339590263" lon="-2.0790423173"><ele>240.95</ele><time>2015-05-27T09:48:46Z</time></trkpt><trkpt lat="51.8339638878" lon="-2.0790344384"><ele>240.47</ele><time>2015-05-27T09:48:47Z</time></trkpt><trkpt lat="51.8339701742" lon="-2.0790267270"><ele>236.62</ele><time>2015-05-27T09:48:48Z</time></trkpt><trkpt lat="51.8339750357" lon="-2.0790176746"><ele>237.10</ele><time>2015-05-27T09:48:49Z</time></trkpt><trkpt lat="51.8339857645" lon="-2.0789953787"><ele>240.47</ele><time>2015-05-27T09:48:51Z</time></trkpt><trkpt lat="51.8339978345" lon="-2.0789793693"><ele>235.66</ele><time>2015-05-27T09:48:53Z</time></trkpt><trkpt lat="51.8340353016" lon="-2.0789243840"><ele>239.02</ele><time>2015-05-27T09:48:58Z</time></trkpt><trkpt lat="51.8340514787" lon="-2.0789084584"><ele>234.22</ele><time>2015-05-27T09:49:00Z</time></trkpt><trkpt lat="51.8341149297" lon="-2.0788383018"><ele>234.70</ele><time>2015-05-27T09:49:07Z</time></trkpt><trkpt lat="51.8341335375" lon="-2.0787828136"><ele>237.10</ele><time>2015-05-27T09:49:10Z</time></trkpt><trkpt lat="51.8341457751" lon="-2.0787564106"><ele>231.33</ele><time>2015-05-27T09:49:12Z</time></trkpt><trkpt lat="51.8341519777" lon="-2.0787438378"><ele>235.66</ele><time>2015-05-27T09:49:13Z</time></trkpt><trkpt lat="51.8341770396" lon="-2.0787046105"><ele>236.62</ele><time>2015-05-27T09:49:17Z</time></trkpt><trkpt lat="51.8342117406" lon="-2.0786247309"><ele>232.78</ele><time>2015-05-27T09:49:24Z</time></trkpt><trkpt lat="51.8342160154" lon="-2.0786187798"><ele>233.26</ele><time>2015-05-27T09:49:25Z</time></trkpt><trkpt lat="51.8342337850" lon="-2.0785596874"><ele>235.66</ele><time>2015-05-27T09:49:30Z</time></trkpt><trkpt lat="51.8342383113" lon="-2.0785435941"><ele>231.81</ele><time>2015-05-27T09:49:31Z</time></trkpt><trkpt lat="51.8342453521" lon="-2.0785280038"><ele>233.26</ele><time>2015-05-27T09:49:32Z</time></trkpt><trkpt lat="51.8342920393" lon="-2.0784555003"><ele>232.30</ele><time>2015-05-27T09:49:38Z</time></trkpt><trkpt lat="51.8343210407" lon="-2.0783764590"><ele>235.18</ele><time>2015-05-27T09:49:43Z</time></trkpt><trkpt lat="51.8343313504" lon="-2.0783549175"><ele>231.81</ele><time>2015-05-27T09:49:45Z</time></trkpt><trkpt lat="51.8343606032" lon="-2.0783011895"><ele>237.10</ele><time>2015-05-27T09:49:49Z</time></trkpt><trkpt lat="51.8343675602" lon="-2.0782861859"><ele>234.70</ele><time>2015-05-27T09:49:50Z</time></trkpt><trkpt lat="51.8343891855" lon="-2.0782394148"><ele>230.37</ele><time>2015-05-27T09:49:54Z</time></trkpt><trkpt lat="51.8343989924" lon="-2.0781872794"><ele>234.70</ele><time>2015-05-27T09:49:57Z</time></trkpt><trkpt lat="51.8344086315" lon="-2.0781722758"><ele>232.78</ele><time>2015-05-27T09:50:00Z</time></trkpt><trkpt lat="51.8344517145" lon="-2.0780864451"><ele>231.81</ele><time>2015-05-27T09:50:20Z</time></trkpt><trkpt lat="51.8344869185" lon="-2.0779464673"><ele>231.81</ele><time>2015-05-27T09:50:30Z</time></trkpt><trkpt lat="51.8345377967" lon="-2.0778174698"><ele>231.33</ele><time>2015-05-27T09:50:39Z</time></trkpt><trkpt lat="51.8345473520" lon="-2.0777752250"><ele>234.70</ele><time>2015-05-27T09:50:43Z</time></trkpt><trkpt lat="51.8345511239" lon="-2.0777655020"><ele>229.89</ele><time>2015-05-27T09:50:44Z</time></trkpt><trkpt lat="51.8345549796" lon="-2.0777485706"><ele>231.33</ele><time>2015-05-27T09:50:45Z</time></trkpt><trkpt lat="51.8345702346" lon="-2.0776944235"><ele>228.45</ele><time>2015-05-27T09:50:48Z</time></trkpt><trkpt lat="51.8345752638" lon="-2.0776820183"><ele>231.81</ele><time>2015-05-27T09:50:49Z</time></trkpt><trkpt lat="51.8345813826" lon="-2.0776545256"><ele>235.66</ele><time>2015-05-27T09:50:51Z</time></trkpt><trkpt lat="51.8345872499" lon="-2.0776411146"><ele>234.22</ele><time>2015-05-27T09:50:52Z</time></trkpt><trkpt lat="51.8345978949" lon="-2.0776189864"><ele>226.05</ele><time>2015-05-27T09:50:54Z</time></trkpt><trkpt lat="51.8346016668" lon="-2.0776103530"><ele>232.30</ele><time>2015-05-27T09:50:55Z</time></trkpt><trkpt lat="51.8346305005" lon="-2.0775941759"><ele>224.12</ele><time>2015-05-27T09:51:13Z</time></trkpt><trkpt lat="51.8346218672" lon="-2.0775899850"><ele>235.66</ele><time>2015-05-27T09:51:14Z</time></trkpt><trkpt lat="51.8346232921" lon="-2.0775736403"><ele>234.22</ele><time>2015-05-27T09:51:15Z</time></trkpt><trkpt lat="51.8346365355" lon="-2.0775273722"><ele>232.78</ele><time>2015-05-27T09:51:18Z</time></trkpt><trkpt lat="51.8346819654" lon="-2.0772964507"><ele>227.97</ele><time>2015-05-27T09:51:34Z</time></trkpt><trkpt lat="51.8346848991" lon="-2.0772812795"><ele>233.26</ele><time>2015-05-27T09:51:35Z</time></trkpt><trkpt lat="51.8346856534" lon="-2.0772663597"><ele>233.74</ele><time>2015-05-27T09:51:36Z</time></trkpt><trkpt lat="51.8346973043" lon="-2.0772003941"><ele>228.93</ele><time>2015-05-27T09:51:40Z</time></trkpt><trkpt lat="51.8347054347" lon="-2.0771568920"><ele>233.74</ele><time>2015-05-27T09:51:43Z</time></trkpt><trkpt lat="51.8347067758" lon="-2.0771485940"><ele>227.49</ele><time>2015-05-27T09:51:44Z</time></trkpt><trkpt lat="51.8347078655" lon="-2.0771371108"><ele>232.78</ele><time>2015-05-27T09:51:45Z</time></trkpt><trkpt lat="51.8347389624" lon="-2.0769048482"><ele>232.78</ele><time>2015-05-27T09:52:00Z</time></trkpt><trkpt lat="51.8347404711" lon="-2.0769045968"><ele>224.12</ele><time>2015-05-27T09:52:08Z</time></trkpt><trkpt lat="51.8347407226" lon="-2.0769045968"><ele>234.70</ele><time>2015-05-27T09:52:09Z</time></trkpt><trkpt lat="51.8347473443" lon="-2.0768983942"><ele>233.74</ele><time>2015-05-27T09:52:10Z</time></trkpt><trkpt lat="51.8347538821" lon="-2.0768880006"><ele>228.93</ele><time>2015-05-27T09:52:11Z</time></trkpt><trkpt lat="51.8347583245" lon="-2.0768771879"><ele>233.26</ele><time>2015-05-27T09:52:12Z</time></trkpt><trkpt lat="51.8348065205" lon="-2.0767047722"><ele>232.78</ele><time>2015-05-27T09:52:26Z</time></trkpt><trkpt lat="51.8348246254" lon="-2.0766160917"><ele>239.02</ele><time>2015-05-27T09:52:32Z</time></trkpt><trkpt lat="51.8348273076" lon="-2.0766013395"><ele>236.62</ele><time>2015-05-27T09:52:33Z</time></trkpt><trkpt lat="51.8348298222" lon="-2.0765906107"><ele>232.78</ele><time>2015-05-27T09:52:34Z</time></trkpt><trkpt lat="51.8348338455" lon="-2.0765839890"><ele>233.74</ele><time>2015-05-27T09:52:35Z</time></trkpt><trkpt lat="51.8348446582" lon="-2.0765741821"><ele>228.93</ele><time>2015-05-27T09:52:39Z</time></trkpt><trkpt lat="51.8348436523" lon="-2.0765607711"><ele>231.33</ele><time>2015-05-27T09:52:40Z</time></trkpt><trkpt lat="51.8348471727" lon="-2.0765355416"><ele>238.06</ele><time>2015-05-27T09:52:42Z</time></trkpt><trkpt lat="51.8348499388" lon="-2.0765284169"><ele>231.81</ele><time>2015-05-27T09:52:43Z</time></trkpt><trkpt lat="51.8348516989" lon="-2.0765035227"><ele>235.66</ele><time>2015-05-27T09:52:46Z</time></trkpt><trkpt lat="51.8348553870" lon="-2.0764947217"><ele>232.30</ele><time>2015-05-27T09:52:47Z</time></trkpt><trkpt lat="51.8348731566" lon="-2.0764280017"><ele>226.53</ele><time>2015-05-27T09:52:53Z</time></trkpt><trkpt lat="51.8348752521" lon="-2.0764135011"><ele>232.78</ele><time>2015-05-27T09:52:54Z</time></trkpt><trkpt lat="51.8348672055" lon="-2.0763958991"><ele>229.41</ele><time>2015-05-27T09:52:57Z</time></trkpt><trkpt lat="51.8348653615" lon="-2.0763899479"><ele>233.26</ele><time>2015-05-27T09:52:58Z</time></trkpt><trkpt lat="51.8348687142" lon="-2.0763033628"><ele>236.14</ele><time>2015-05-27T09:53:05Z</time></trkpt><trkpt lat="51.8348722346" lon="-2.0762919635"><ele>235.18</ele><time>2015-05-27T09:53:06Z</time></trkpt><trkpt lat="51.8348770961" lon="-2.0762793906"><ele>230.85</ele><time>2015-05-27T09:53:07Z</time></trkpt><trkpt lat="51.8348827120" lon="-2.0762688294"><ele>232.78</ele><time>2015-05-27T09:53:08Z</time></trkpt><trkpt lat="51.8348860648" lon="-2.0762627944"><ele>233.74</ele><time>2015-05-27T09:53:09Z</time></trkpt><trkpt lat="51.8348923512" lon="-2.0762457792"><ele>235.66</ele><time>2015-05-27T09:53:10Z</time></trkpt><trkpt lat="51.8348979671" lon="-2.0762359723"><ele>232.78</ele><time>2015-05-27T09:53:11Z</time></trkpt><trkpt lat="51.8349049240" lon="-2.0762273390"><ele>236.62</ele><time>2015-05-27T09:53:12Z</time></trkpt><trkpt lat="51.8349117134" lon="-2.0762191247"><ele>236.62</ele><time>2015-05-27T09:53:13Z</time></trkpt><trkpt lat="51.8349649385" lon="-2.0761627145"><ele>232.30</ele><time>2015-05-27T09:53:18Z</time></trkpt><trkpt lat="51.8350109551" lon="-2.0760506485"><ele>237.58</ele><time>2015-05-27T09:53:25Z</time></trkpt><trkpt lat="51.8350308202" lon="-2.0760236587"><ele>234.22</ele><time>2015-05-27T09:53:28Z</time></trkpt><trkpt lat="51.8350577261" lon="-2.0759830065"><ele>234.22</ele><time>2015-05-27T09:53:32Z</time></trkpt><trkpt lat="51.8350713048" lon="-2.0759675838"><ele>233.26</ele><time>2015-05-27T09:53:34Z</time></trkpt><trkpt lat="51.8350841291" lon="-2.0759549271"><ele>233.74</ele><time>2015-05-27T09:53:36Z</time></trkpt><trkpt lat="51.8351051677" lon="-2.0759262610"><ele>232.78</ele><time>2015-05-27T09:53:38Z</time></trkpt><trkpt lat="51.8351615779" lon="-2.0758418553"><ele>233.26</ele><time>2015-05-27T09:53:44Z</time></trkpt><trkpt lat="51.8351824488" lon="-2.0758096687"><ele>233.74</ele><time>2015-05-27T09:53:46Z</time></trkpt><trkpt lat="51.8353399448" lon="-2.0756261889"><ele>227.49</ele><time>2015-05-27T09:54:06Z</time></trkpt><trkpt lat="51.8353480753" lon="-2.0756164659"><ele>236.14</ele><time>2015-05-27T09:54:07Z</time></trkpt><trkpt lat="51.8353548646" lon="-2.0756105985"><ele>232.78</ele><time>2015-05-27T09:54:08Z</time></trkpt><trkpt lat="51.8353635818" lon="-2.0756111015"><ele>231.81</ele><time>2015-05-27T09:54:10Z</time></trkpt><trkpt lat="51.8354091793" lon="-2.0756144542"><ele>228.45</ele><time>2015-05-27T09:54:29Z</time></trkpt><trkpt lat="51.8354594707" lon="-2.0755528472"><ele>228.45</ele><time>2015-05-27T09:54:34Z</time></trkpt><trkpt lat="51.8354648352" lon="-2.0755386818"><ele>229.89</ele><time>2015-05-27T09:54:35Z</time></trkpt><trkpt lat="51.8354779109" lon="-2.0754909888"><ele>226.53</ele><time>2015-05-27T09:54:39Z</time></trkpt><trkpt lat="51.8354820181" lon="-2.0754822716"><ele>232.78</ele><time>2015-05-27T09:54:40Z</time></trkpt><trkpt lat="51.8354866281" lon="-2.0754690282"><ele>229.41</ele><time>2015-05-27T09:54:41Z</time></trkpt><trkpt lat="51.8354915734" lon="-2.0754529350"><ele>226.05</ele><time>2015-05-27T09:54:42Z</time></trkpt><trkpt lat="51.8354962673" lon="-2.0754326507"><ele>231.81</ele><time>2015-05-27T09:54:43Z</time></trkpt><trkpt lat="51.8355080020" lon="-2.0753975306"><ele>236.14</ele><time>2015-05-27T09:54:45Z</time></trkpt><trkpt lat="51.8355179764" lon="-2.0753688645"><ele>229.89</ele><time>2015-05-27T09:54:47Z</time></trkpt><trkpt lat="51.8355214130" lon="-2.0753541961"><ele>225.57</ele><time>2015-05-27T09:54:48Z</time></trkpt><trkpt lat="51.8355225865" lon="-2.0753389411"><ele>232.30</ele><time>2015-05-27T09:54:49Z</time></trkpt><trkpt lat="51.8355465587" lon="-2.0752600674"><ele>235.66</ele><time>2015-05-27T09:54:55Z</time></trkpt><trkpt lat="51.8355600536" lon="-2.0752296411"><ele>236.62</ele><time>2015-05-27T09:54:57Z</time></trkpt><trkpt lat="51.8355626520" lon="-2.0752138831"><ele>231.81</ele><time>2015-05-27T09:54:58Z</time></trkpt><trkpt lat="51.8355635740" lon="-2.0751965325"><ele>226.53</ele><time>2015-05-27T09:54:59Z</time></trkpt><trkpt lat="51.8355649151" lon="-2.0751755778"><ele>232.30</ele><time>2015-05-27T09:55:00Z</time></trkpt><trkpt lat="51.8355676811" lon="-2.0751420502"><ele>234.22</ele><time>2015-05-27T09:55:02Z</time></trkpt><trkpt lat="51.8355841096" lon="-2.0749689639"><ele>236.14</ele><time>2015-05-27T09:55:13Z</time></trkpt><trkpt lat="51.8355883844" lon="-2.0749449078"><ele>234.70</ele><time>2015-05-27T09:55:15Z</time></trkpt><trkpt lat="51.8355998676" lon="-2.0749236178"><ele>232.30</ele><time>2015-05-27T09:55:17Z</time></trkpt><trkpt lat="51.8356063217" lon="-2.0749097876"><ele>235.66</ele><time>2015-05-27T09:55:18Z</time></trkpt><trkpt lat="51.8356183916" lon="-2.0748833008"><ele>239.02</ele><time>2015-05-27T09:55:20Z</time></trkpt><trkpt lat="51.8356286176" lon="-2.0748522878"><ele>231.81</ele><time>2015-05-27T09:55:22Z</time></trkpt><trkpt lat="51.8356350716" lon="-2.0748366136"><ele>234.22</ele><time>2015-05-27T09:55:23Z</time></trkpt><trkpt lat="51.8356490694" lon="-2.0748062711"><ele>230.37</ele><time>2015-05-27T09:55:25Z</time></trkpt><trkpt lat="51.8356554396" lon="-2.0747890882"><ele>235.66</ele><time>2015-05-27T09:55:26Z</time></trkpt><trkpt lat="51.8356666714" lon="-2.0747491065"><ele>239.51</ele><time>2015-05-27T09:55:28Z</time></trkpt><trkpt lat="51.8356689345" lon="-2.0747337677"><ele>237.10</ele><time>2015-05-27T09:55:29Z</time></trkpt><trkpt lat="51.8356722873" lon="-2.0747214463"><ele>233.74</ele><time>2015-05-27T09:55:30Z</time></trkpt><trkpt lat="51.8356876262" lon="-2.0746807102"><ele>237.58</ele><time>2015-05-27T09:55:33Z</time></trkpt><trkpt lat="51.8357329722" lon="-2.0745889284"><ele>233.26</ele><time>2015-05-27T09:55:39Z</time></trkpt><trkpt lat="51.8357398454" lon="-2.0745756850"><ele>236.14</ele><time>2015-05-27T09:55:40Z</time></trkpt><trkpt lat="51.8357674219" lon="-2.0744997449"><ele>234.70</ele><time>2015-05-27T09:55:45Z</time></trkpt><trkpt lat="51.8357816711" lon="-2.0744659659"><ele>236.62</ele><time>2015-05-27T09:55:47Z</time></trkpt><trkpt lat="51.8358089961" lon="-2.0743978210"><ele>233.26</ele><time>2015-05-27T09:55:52Z</time></trkpt><trkpt lat="51.8358162045" lon="-2.0743844938"><ele>235.66</ele><time>2015-05-27T09:55:53Z</time></trkpt><trkpt lat="51.8358289450" lon="-2.0743295923"><ele>239.51</ele><time>2015-05-27T09:55:56Z</time></trkpt><trkpt lat="51.8358349800" lon="-2.0743125770"><ele>236.14</ele><time>2015-05-27T09:55:57Z</time></trkpt><trkpt lat="51.8358432781" lon="-2.0742969867"><ele>230.85</ele><time>2015-05-27T09:55:58Z</time></trkpt><trkpt lat="51.8358523306" lon="-2.0742793009"><ele>234.22</ele><time>2015-05-27T09:55:59Z</time></trkpt><trkpt lat="51.8358825892" lon="-2.0742058754"><ele>239.51</ele><time>2015-05-27T09:56:04Z</time></trkpt><trkpt lat="51.8358970899" lon="-2.0741850883"><ele>234.22</ele><time>2015-05-27T09:56:06Z</time></trkpt><trkpt lat="51.8359168712" lon="-2.0741383173"><ele>236.14</ele><time>2015-05-27T09:56:09Z</time></trkpt><trkpt lat="51.8359265942" lon="-2.0741029456"><ele>238.06</ele><time>2015-05-27T09:56:11Z</time></trkpt><trkpt lat="51.8359560985" lon="-2.0740377344"><ele>234.22</ele><time>2015-05-27T09:56:15Z</time></trkpt><trkpt lat="51.8359755445" lon="-2.0739669912"><ele>238.06</ele><time>2015-05-27T09:56:19Z</time></trkpt><trkpt lat="51.8360058870" lon="-2.0739177056"><ele>232.78</ele><time>2015-05-27T09:56:22Z</time></trkpt><trkpt lat="51.8360147718" lon="-2.0739068091"><ele>233.26</ele><time>2015-05-27T09:56:23Z</time></trkpt><trkpt lat="51.8360566813" lon="-2.0738337189"><ele>237.10</ele><time>2015-05-27T09:56:28Z</time></trkpt><trkpt lat="51.8360699248" lon="-2.0738177095"><ele>237.58</ele><time>2015-05-27T09:56:30Z</time></trkpt><trkpt lat="51.8360747024" lon="-2.0738100819"><ele>233.74</ele><time>2015-05-27T09:56:31Z</time></trkpt><trkpt lat="51.8360941485" lon="-2.0737806614"><ele>237.10</ele><time>2015-05-27T09:56:34Z</time></trkpt><trkpt lat="51.8360994291" lon="-2.0737753808"><ele>237.10</ele><time>2015-05-27T09:56:35Z</time></trkpt><trkpt lat="51.8361303583" lon="-2.0736984350"><ele>235.18</ele><time>2015-05-27T09:56:53Z</time></trkpt><trkpt lat="51.8360999320" lon="-2.0737176295"><ele>234.70</ele><time>2015-05-27T09:57:15Z</time></trkpt><trkpt lat="51.8361000158" lon="-2.0737190545"><ele>235.66</ele><time>2015-05-27T09:57:17Z</time></trkpt><trkpt lat="51.8361059669" lon="-2.0737322140"><ele>235.18</ele><time>2015-05-27T09:57:29Z</time></trkpt><trkpt lat="51.8361022789" lon="-2.0737232454"><ele>239.02</ele><time>2015-05-27T09:57:41Z</time></trkpt><trkpt lat="51.8361057155" lon="-2.0737175457"><ele>238.06</ele><time>2015-05-27T09:57:42Z</time></trkpt><trkpt lat="51.8361117505" lon="-2.0737103373"><ele>232.78</ele><time>2015-05-27T09:57:43Z</time></trkpt><trkpt lat="51.8361207191" lon="-2.0737079903"><ele>234.70</ele><time>2015-05-27T09:57:44Z</time></trkpt><trkpt lat="51.8361743633" lon="-2.0736987703"><ele>233.26</ele><time>2015-05-27T09:58:02Z</time></trkpt><trkpt lat="51.8361732736" lon="-2.0736986864"><ele>238.06</ele><time>2015-05-27T09:58:03Z</time></trkpt><trkpt lat="51.8361686636" lon="-2.0736944117"><ele>233.74</ele><time>2015-05-27T09:58:06Z</time></trkpt><trkpt lat="51.8361681607" lon="-2.0736950822"><ele>238.06</ele><time>2015-05-27T09:58:07Z</time></trkpt><trkpt lat="51.8361673225" lon="-2.0737162884"><ele>241.43</ele><time>2015-05-27T09:58:13Z</time></trkpt><trkpt lat="51.8361674901" lon="-2.0737187192"><ele>234.70</ele><time>2015-05-27T09:58:14Z</time></trkpt><trkpt lat="51.8361653946" lon="-2.0737302862"><ele>239.99</ele><time>2015-05-27T09:58:22Z</time></trkpt><trkpt lat="51.8361777999" lon="-2.0737353992"><ele>237.58</ele><time>2015-05-27T09:58:24Z</time></trkpt><trkpt lat="51.8361890316" lon="-2.0737491455"><ele>240.95</ele><time>2015-05-27T09:58:26Z</time></trkpt><trkpt lat="51.8361943960" lon="-2.0737631433"><ele>234.22</ele><time>2015-05-27T09:58:27Z</time></trkpt><trkpt lat="51.8361974973" lon="-2.0737742074"><ele>237.58</ele><time>2015-05-27T09:58:28Z</time></trkpt><trkpt lat="51.8361988384" lon="-2.0737840142"><ele>234.22</ele><time>2015-05-27T09:58:33Z</time></trkpt><trkpt lat="51.8361985870" lon="-2.0737854391"><ele>239.02</ele><time>2015-05-27T09:58:34Z</time></trkpt><trkpt lat="51.8362018559" lon="-2.0737990178"><ele>236.62</ele><time>2015-05-27T09:58:38Z</time></trkpt><trkpt lat="51.8362102378" lon="-2.0737829246"><ele>234.22</ele><time>2015-05-27T09:58:58Z</time></trkpt><trkpt lat="51.8362102378" lon="-2.0737835951"><ele>238.54</ele><time>2015-05-27T09:59:00Z</time></trkpt><trkpt lat="51.8362104055" lon="-2.0737840980"><ele>233.74</ele><time>2015-05-27T09:59:01Z</time></trkpt><trkpt lat="51.8362104893" lon="-2.0737840142"><ele>237.58</ele><time>2015-05-27T09:59:02Z</time></trkpt><trkpt lat="51.8362163566" lon="-2.0737980958"><ele>246.23</ele><time>2015-05-27T09:59:06Z</time></trkpt><trkpt lat="51.8362190388" lon="-2.0738046337"><ele>243.83</ele><time>2015-05-27T09:59:07Z</time></trkpt><trkpt lat="51.8362208828" lon="-2.0738122612"><ele>240.95</ele><time>2015-05-27T09:59:08Z</time></trkpt><trkpt lat="51.8362226430" lon="-2.0738185477"><ele>236.62</ele><time>2015-05-27T09:59:09Z</time></trkpt><trkpt lat="51.8362093158" lon="-2.0738330483"><ele>237.58</ele><time>2015-05-27T09:59:18Z</time></trkpt><trkpt lat="51.8361980002" lon="-2.0738371555"><ele>238.06</ele><time>2015-05-27T09:59:19Z</time></trkpt><trkpt lat="51.8360641412" lon="-2.0736589562"><ele>238.06</ele><time>2015-05-27T09:59:38Z</time></trkpt><trkpt lat="51.8360911310" lon="-2.0736760553"><ele>238.54</ele><time>2015-05-27T09:59:58Z</time></trkpt><trkpt lat="51.8360915501" lon="-2.0736757200"><ele>237.10</ele><time>2015-05-27T09:59:59Z</time></trkpt><trkpt lat="51.8361032009" lon="-2.0736843534"><ele>238.54</ele><time>2015-05-27T10:00:01Z</time></trkpt><trkpt lat="51.8361069728" lon="-2.0736883767"><ele>236.62</ele><time>2015-05-27T10:00:02Z</time></trkpt><trkpt lat="51.8361420929" lon="-2.0737430267"><ele>238.06</ele><time>2015-05-27T10:00:09Z</time></trkpt><trkpt lat="51.8361496367" lon="-2.0737594552"><ele>238.06</ele><time>2015-05-27T10:00:11Z</time></trkpt><trkpt lat="51.8361537438" lon="-2.0737664960"><ele>238.06</ele><time>2015-05-27T10:00:16Z</time></trkpt><trkpt lat="51.8361575995" lon="-2.0737262629"><ele>237.10</ele><time>2015-05-27T10:00:18Z</time></trkpt><trkpt lat="51.8361621257" lon="-2.0736752171"><ele>238.06</ele><time>2015-05-27T10:00:21Z</time></trkpt><trkpt lat="51.8361751176" lon="-2.0735272765"><ele>237.10</ele><time>2015-05-27T10:00:30Z</time></trkpt><trkpt lat="51.8361875229" lon="-2.0733862091"><ele>236.62</ele><time>2015-05-27T10:00:38Z</time></trkpt><trkpt lat="51.8361900374" lon="-2.0733572915"><ele>236.62</ele><time>2015-05-27T10:00:40Z</time></trkpt><trkpt lat="51.8361964915" lon="-2.0732842013"><ele>238.54</ele><time>2015-05-27T10:00:44Z</time></trkpt><trkpt lat="51.8361980002" lon="-2.0732671861"><ele>237.10</ele><time>2015-05-27T10:00:45Z</time></trkpt></trkseg><trkseg><trkpt lat="51.8361356389" lon="-2.0736341458"><ele>237.58</ele><time>2015-05-27T10:05:29Z</time></trkpt><trkpt lat="51.8361451104" lon="-2.0734181441"><ele>238.06</ele><time>2015-05-27T10:05:53Z</time></trkpt><trkpt lat="51.8361845054" lon="-2.0733317267"><ele>239.51</ele><time>2015-05-27T10:06:07Z</time></trkpt></trkseg><trkseg><trkpt lat="51.8361951504" lon="-2.0737840142"><ele>238.06</ele><time>2015-05-27T10:09:05Z</time></trkpt><trkpt lat="51.8361826614" lon="-2.0737814996"><ele>239.51</ele><time>2015-05-27T10:09:14Z</time></trkpt></trkseg><trkseg><trkpt lat="51.8361993413" lon="-2.0736498199"><ele>241.43</ele><time>2015-05-27T10:21:15Z</time></trkpt><trkpt lat="51.8362035323" lon="-2.0737525821"><ele>237.58</ele><time>2015-05-27T10:21:17Z</time></trkpt><trkpt lat="51.8362080585" lon="-2.0737881213"><ele>242.87</ele><time>2015-05-27T10:21:19Z</time></trkpt><trkpt lat="51.8362242356" lon="-2.0738301147"><ele>239.99</ele><time>2015-05-27T10:21:25Z</time></trkpt><trkpt lat="51.8362242356" lon="-2.0738446992"><ele>236.14</ele><time>2015-05-27T10:21:34Z</time></trkpt><trkpt lat="51.8362229783" lon="-2.0738426037"><ele>241.91</ele><time>2015-05-27T10:21:35Z</time></trkpt><trkpt lat="51.8362203799" lon="-2.0738369040"><ele>240.47</ele><time>2015-05-27T10:21:36Z</time></trkpt><trkpt lat="51.8362214696" lon="-2.0738254208"><ele>240.47</ele><time>2015-05-27T10:22:01Z</time></trkpt><trkpt lat="51.8362117466" lon="-2.0737981796"><ele>237.10</ele><time>2015-05-27T10:22:22Z</time></trkpt><trkpt lat="51.8362097349" lon="-2.0737980958"><ele>229.41</ele><time>2015-05-27T10:22:23Z</time></trkpt><trkpt lat="51.8362057116" lon="-2.0737920608"><ele>243.35</ele><time>2015-05-27T10:22:24Z</time></trkpt><trkpt lat="51.8362036999" lon="-2.0737870317"><ele>239.51</ele><time>2015-05-27T10:22:25Z</time></trkpt><trkpt lat="51.8362233974" lon="-2.0737977605"><ele>240.47</ele><time>2015-05-27T10:22:48Z</time></trkpt><trkpt lat="51.8362135906" lon="-2.0737839304"><ele>240.47</ele><time>2015-05-27T10:23:13Z</time></trkpt><trkpt lat="51.8362046219" lon="-2.0737555996"><ele>240.95</ele><time>2015-05-27T10:23:32Z</time></trkpt><trkpt lat="51.8361998443" lon="-2.0737468824"><ele>237.58</ele><time>2015-05-27T10:23:33Z</time></trkpt><trkpt lat="51.8361923844" lon="-2.0737255085"><ele>238.06</ele><time>2015-05-27T10:23:42Z</time></trkpt><trkpt lat="51.8362204637" lon="-2.0736293681"><ele>239.02</ele><time>2015-05-27T10:23:48Z</time></trkpt><trkpt lat="51.8362725992" lon="-2.0735133626"><ele>238.54</ele><time>2015-05-27T10:23:54Z</time></trkpt><trkpt lat="51.8364751060" lon="-2.0732277073"><ele>238.06</ele><time>2015-05-27T10:24:13Z</time></trkpt><trkpt lat="51.8365345336" lon="-2.0731788408"><ele>232.30</ele><time>2015-05-27T10:24:18Z</time></trkpt><trkpt lat="51.8365451787" lon="-2.0731697883"><ele>237.10</ele><time>2015-05-27T10:24:19Z</time></trkpt><trkpt lat="51.8365969788" lon="-2.0731133781"><ele>234.22</ele><time>2015-05-27T10:24:23Z</time></trkpt><trkpt lat="51.8366256449" lon="-2.0730740670"><ele>237.58</ele><time>2015-05-27T10:24:26Z</time></trkpt><trkpt lat="51.8366364576" lon="-2.0730607398"><ele>237.58</ele><time>2015-05-27T10:24:27Z</time></trkpt><trkpt lat="51.8367634434" lon="-2.0729335863"><ele>234.70</ele><time>2015-05-27T10:24:39Z</time></trkpt><trkpt lat="51.8368566502" lon="-2.0728271361"><ele>233.74</ele><time>2015-05-27T10:24:46Z</time></trkpt><trkpt lat="51.8369206041" lon="-2.0727422275"><ele>237.10</ele><time>2015-05-27T10:24:51Z</time></trkpt><trkpt lat="51.8369652797" lon="-2.0726835541"><ele>238.54</ele><time>2015-05-27T10:24:54Z</time></trkpt><trkpt lat="51.8369896710" lon="-2.0726429019"><ele>234.70</ele><time>2015-05-27T10:24:56Z</time></trkpt><trkpt lat="51.8370159063" lon="-2.0725975558"><ele>236.62</ele><time>2015-05-27T10:25:00Z</time></trkpt><trkpt lat="51.8370299041" lon="-2.0725852344"><ele>235.66</ele><time>2015-05-27T10:25:02Z</time></trkpt><trkpt lat="51.8370393757" lon="-2.0725802053"><ele>234.70</ele><time>2015-05-27T10:25:03Z</time></trkpt><trkpt lat="51.8370765075" lon="-2.0725456718"><ele>235.66</ele><time>2015-05-27T10:25:06Z</time></trkpt><trkpt lat="51.8371214345" lon="-2.0724792033"><ele>237.58</ele><time>2015-05-27T10:25:10Z</time></trkpt><trkpt lat="51.8371439818" lon="-2.0724403113"><ele>236.14</ele><time>2015-05-27T10:25:12Z</time></trkpt><trkpt lat="51.8371726479" lon="-2.0723936241"><ele>238.06</ele><time>2015-05-27T10:25:15Z</time></trkpt><trkpt lat="51.8371891603" lon="-2.0723766927"><ele>233.26</ele><time>2015-05-27T10:25:17Z</time></trkpt><trkpt lat="51.8372079358" lon="-2.0723719988"><ele>237.58</ele><time>2015-05-27T10:25:19Z</time></trkpt><trkpt lat="51.8372339197" lon="-2.0723507088"><ele>232.30</ele><time>2015-05-27T10:25:21Z</time></trkpt><trkpt lat="51.8372475822" lon="-2.0723367110"><ele>233.26</ele><time>2015-05-27T10:25:22Z</time></trkpt><trkpt lat="51.8373067584" lon="-2.0722660515"><ele>235.66</ele><time>2015-05-27T10:25:26Z</time></trkpt><trkpt lat="51.8373369332" lon="-2.0722196158"><ele>237.58</ele><time>2015-05-27T10:25:29Z</time></trkpt><trkpt lat="51.8373534456" lon="-2.0721893571"><ele>233.74</ele><time>2015-05-27T10:25:31Z</time></trkpt><trkpt lat="51.8373692874" lon="-2.0721735992"><ele>239.99</ele><time>2015-05-27T10:25:33Z</time></trkpt><trkpt lat="51.8373751547" lon="-2.0721688215"><ele>236.62</ele><time>2015-05-27T10:25:34Z</time></trkpt><trkpt lat="51.8373914156" lon="-2.0721510518"><ele>232.30</ele><time>2015-05-27T10:25:36Z</time></trkpt><trkpt lat="51.8373999652" lon="-2.0721297618"><ele>234.70</ele><time>2015-05-27T10:25:37Z</time></trkpt><trkpt lat="51.8374316487" lon="-2.0720572583"><ele>238.54</ele><time>2015-05-27T10:25:41Z</time></trkpt><trkpt lat="51.8374519330" lon="-2.0720251556"><ele>235.18</ele><time>2015-05-27T10:25:43Z</time></trkpt><trkpt lat="51.8374678586" lon="-2.0720101520"><ele>239.51</ele><time>2015-05-27T10:25:45Z</time></trkpt><trkpt lat="51.8374747317" lon="-2.0720043685"><ele>235.18</ele><time>2015-05-27T10:25:46Z</time></trkpt><trkpt lat="51.8374909088" lon="-2.0719751995"><ele>234.22</ele><time>2015-05-27T10:25:48Z</time></trkpt><trkpt lat="51.8375313096" lon="-2.0718909614"><ele>237.58</ele><time>2015-05-27T10:25:52Z</time></trkpt><trkpt lat="51.8375855405" lon="-2.0717915520"><ele>238.54</ele><time>2015-05-27T10:25:58Z</time></trkpt><trkpt lat="51.8375934195" lon="-2.0717731118"><ele>235.18</ele><time>2015-05-27T10:26:00Z</time></trkpt><trkpt lat="51.8376270309" lon="-2.0716928132"><ele>237.58</ele><time>2015-05-27T10:26:04Z</time></trkpt><trkpt lat="51.8376509193" lon="-2.0716296975"><ele>239.02</ele><time>2015-05-27T10:26:07Z</time></trkpt><trkpt lat="51.8376717903" lon="-2.0715885423"><ele>238.06</ele><time>2015-05-27T10:26:09Z</time></trkpt><trkpt lat="51.8376841955" lon="-2.0715612173"><ele>239.02</ele><time>2015-05-27T10:26:11Z</time></trkpt><trkpt lat="51.8376930803" lon="-2.0715419389"><ele>235.66</ele><time>2015-05-27T10:26:13Z</time></trkpt><trkpt lat="51.8377329782" lon="-2.0714442898"><ele>239.51</ele><time>2015-05-27T10:26:19Z</time></trkpt><trkpt lat="51.8377587106" lon="-2.0713688526"><ele>237.58</ele><time>2015-05-27T10:26:22Z</time></trkpt><trkpt lat="51.8378051464" lon="-2.0712717064"><ele>233.74</ele><time>2015-05-27T10:26:28Z</time></trkpt><trkpt lat="51.8378118519" lon="-2.0712530147"><ele>237.10</ele><time>2015-05-27T10:26:29Z</time></trkpt><trkpt lat="51.8378706928" lon="-2.0710862987"><ele>236.14</ele><time>2015-05-27T10:26:38Z</time></trkpt><trkpt lat="51.8378895521" lon="-2.0710401982"><ele>239.99</ele><time>2015-05-27T10:26:42Z</time></trkpt><trkpt lat="51.8378933240" lon="-2.0710311458"><ele>235.66</ele><time>2015-05-27T10:26:43Z</time></trkpt><trkpt lat="51.8378962576" lon="-2.0710192434"><ele>237.10</ele><time>2015-05-27T10:26:44Z</time></trkpt><trkpt lat="51.8378997780" lon="-2.0710055809"><ele>237.58</ele><time>2015-05-27T10:26:45Z</time></trkpt><trkpt lat="51.8379213195" lon="-2.0709307306"><ele>236.14</ele><time>2015-05-27T10:26:51Z</time></trkpt><trkpt lat="51.8379312102" lon="-2.0709008072"><ele>239.99</ele><time>2015-05-27T10:26:53Z</time></trkpt><trkpt lat="51.8379421905" lon="-2.0708754938"><ele>233.74</ele><time>2015-05-27T10:26:55Z</time></trkpt><trkpt lat="51.8379465491" lon="-2.0708656870"><ele>237.58</ele><time>2015-05-27T10:26:56Z</time></trkpt><trkpt lat="51.8380235787" lon="-2.0706641860"><ele>239.51</ele><time>2015-05-27T10:27:11Z</time></trkpt><trkpt lat="51.8380602077" lon="-2.0705409721"><ele>233.74</ele><time>2015-05-27T10:27:21Z</time></trkpt><trkpt lat="51.8380664103" lon="-2.0705313329"><ele>238.54</ele><time>2015-05-27T10:27:22Z</time></trkpt><trkpt lat="51.8380685057" lon="-2.0704765990"><ele>236.62</ele><time>2015-05-27T10:27:29Z</time></trkpt><trkpt lat="51.8380813301" lon="-2.0704241283"><ele>238.54</ele><time>2015-05-27T10:27:32Z</time></trkpt><trkpt lat="51.8380851019" lon="-2.0704053529"><ele>242.87</ele><time>2015-05-27T10:27:33Z</time></trkpt><trkpt lat="51.8380893767" lon="-2.0703901816"><ele>239.02</ele><time>2015-05-27T10:27:34Z</time></trkpt><trkpt lat="51.8381666578" lon="-2.0701471902"><ele>241.43</ele><time>2015-05-27T10:27:51Z</time></trkpt><trkpt lat="51.8381710164" lon="-2.0701329410"><ele>240.47</ele><time>2015-05-27T10:27:52Z</time></trkpt><trkpt lat="51.8381778896" lon="-2.0701038558"><ele>239.02</ele><time>2015-05-27T10:27:54Z</time></trkpt><trkpt lat="51.8381984252" lon="-2.0700380579"><ele>239.99</ele><time>2015-05-27T10:28:00Z</time></trkpt><trkpt lat="51.8382004369" lon="-2.0699977409"><ele>237.10</ele><time>2015-05-27T10:28:13Z</time></trkpt><trkpt lat="51.8382055499" lon="-2.0699880179"><ele>235.18</ele><time>2015-05-27T10:28:14Z</time></trkpt><trkpt lat="51.8382221460" lon="-2.0699513890"><ele>240.47</ele><time>2015-05-27T10:28:17Z</time></trkpt><trkpt lat="51.8382234033" lon="-2.0699518919"><ele>239.02</ele><time>2015-05-27T10:28:20Z</time></trkpt><trkpt lat="51.8382311985" lon="-2.0699329488"><ele>238.06</ele><time>2015-05-27T10:28:22Z</time></trkpt><trkpt lat="51.8382342160" lon="-2.0699198730"><ele>240.95</ele><time>2015-05-27T10:28:23Z</time></trkpt><trkpt lat="51.8382553384" lon="-2.0698733535"><ele>233.74</ele><time>2015-05-27T10:28:27Z</time></trkpt><trkpt lat="51.8382694200" lon="-2.0698140934"><ele>241.43</ele><time>2015-05-27T10:28:30Z</time></trkpt><trkpt lat="51.8382756226" lon="-2.0697840862"><ele>237.58</ele><time>2015-05-27T10:28:32Z</time></trkpt><trkpt lat="51.8382848427" lon="-2.0697410870"><ele>239.99</ele><time>2015-05-27T10:28:35Z</time></trkpt><trkpt lat="51.8382982537" lon="-2.0696450304"><ele>238.54</ele><time>2015-05-27T10:28:41Z</time></trkpt><trkpt lat="51.8382993434" lon="-2.0696053002"><ele>239.51</ele><time>2015-05-27T10:28:43Z</time></trkpt><trkpt lat="51.8383076414" lon="-2.0695683360"><ele>236.62</ele><time>2015-05-27T10:28:46Z</time></trkpt><trkpt lat="51.8383315299" lon="-2.0695245825"><ele>241.91</ele><time>2015-05-27T10:28:49Z</time></trkpt><trkpt lat="51.8383638002" lon="-2.0694644004"><ele>238.54</ele><time>2015-05-27T10:28:53Z</time></trkpt><trkpt lat="51.8383907899" lon="-2.0693759713"><ele>240.47</ele><time>2015-05-27T10:28:58Z</time></trkpt><trkpt lat="51.8383984175" lon="-2.0693625603"><ele>236.62</ele><time>2015-05-27T10:28:59Z</time></trkpt><trkpt lat="51.8384060450" lon="-2.0693506580"><ele>237.58</ele><time>2015-05-27T10:29:00Z</time></trkpt><trkpt lat="51.8384324480" lon="-2.0692489017"><ele>238.54</ele><time>2015-05-27T10:29:13Z</time></trkpt><trkpt lat="51.8384382315" lon="-2.0692121051"><ele>237.10</ele><time>2015-05-27T10:29:15Z</time></trkpt><trkpt lat="51.8384439312" lon="-2.0691478159"><ele>239.99</ele><time>2015-05-27T10:29:18Z</time></trkpt><trkpt lat="51.8384546600" lon="-2.0690992009"><ele>235.18</ele><time>2015-05-27T10:29:21Z</time></trkpt><trkpt lat="51.8384680711" lon="-2.0690648351"><ele>238.54</ele><time>2015-05-27T10:29:23Z</time></trkpt><trkpt lat="51.8384882715" lon="-2.0690287091"><ele>234.22</ele><time>2015-05-27T10:29:26Z</time></trkpt><trkpt lat="51.8384961504" lon="-2.0690183993"><ele>238.06</ele><time>2015-05-27T10:29:27Z</time></trkpt><trkpt lat="51.8385242298" lon="-2.0689424593"><ele>234.70</ele><time>2015-05-27T10:29:33Z</time></trkpt><trkpt lat="51.8385257386" lon="-2.0689261146"><ele>238.06</ele><time>2015-05-27T10:29:34Z</time></trkpt><trkpt lat="51.8385196198" lon="-2.0688632503"><ele>235.18</ele><time>2015-05-27T10:29:38Z</time></trkpt><trkpt lat="51.8385338690" lon="-2.0687704626"><ele>237.10</ele><time>2015-05-27T10:29:43Z</time></trkpt><trkpt lat="51.8385371380" lon="-2.0686938521"><ele>237.58</ele><time>2015-05-27T10:29:57Z</time></trkpt><trkpt lat="51.8385309353" lon="-2.0687098615"><ele>232.30</ele><time>2015-05-27T10:30:04Z</time></trkpt><trkpt lat="51.8385316897" lon="-2.0687065925"><ele>242.39</ele><time>2015-05-27T10:30:05Z</time></trkpt><trkpt lat="51.8385300972" lon="-2.0687030721"><ele>238.54</ele><time>2015-05-27T10:30:06Z</time></trkpt><trkpt lat="51.8385286722" lon="-2.0687065925"><ele>228.45</ele><time>2015-05-27T10:30:08Z</time></trkpt><trkpt lat="51.8385290075" lon="-2.0687073469"><ele>246.23</ele><time>2015-05-27T10:30:09Z</time></trkpt><trkpt lat="51.8385290075" lon="-2.0687075146"><ele>234.70</ele><time>2015-05-27T10:30:10Z</time></trkpt><trkpt lat="51.8385286722" lon="-2.0687109511"><ele>237.10</ele><time>2015-05-27T10:30:22Z</time></trkpt><trkpt lat="51.8385284208" lon="-2.0687117055"><ele>236.14</ele><time>2015-05-27T10:30:29Z</time></trkpt><trkpt lat="51.8385287561" lon="-2.0687104482"><ele>239.51</ele><time>2015-05-27T10:30:45Z</time></trkpt><trkpt lat="51.8385287561" lon="-2.0687105320"><ele>236.14</ele><time>2015-05-27T10:30:46Z</time></trkpt><trkpt lat="51.8385288399" lon="-2.0687106997"><ele>229.41</ele><time>2015-05-27T10:30:53Z</time></trkpt><trkpt lat="51.8385289237" lon="-2.0687102806"><ele>237.10</ele><time>2015-05-27T10:30:54Z</time></trkpt><trkpt lat="51.8385290075" lon="-2.0687098615"><ele>232.30</ele><time>2015-05-27T10:30:55Z</time></trkpt><trkpt lat="51.8385290075" lon="-2.0687093586"><ele>235.66</ele><time>2015-05-27T10:30:56Z</time></trkpt><trkpt lat="51.8385290075" lon="-2.0687086042"><ele>230.37</ele><time>2015-05-27T10:31:02Z</time></trkpt><trkpt lat="51.8385290075" lon="-2.0687083527"><ele>236.14</ele><time>2015-05-27T10:31:03Z</time></trkpt><trkpt lat="51.8385290075" lon="-2.0687075146"><ele>243.83</ele><time>2015-05-27T10:31:08Z</time></trkpt><trkpt lat="51.8385290075" lon="-2.0687075146"><ele>235.18</ele><time>2015-05-27T10:31:09Z</time></trkpt><trkpt lat="51.8385290075" lon="-2.0687074307"><ele>236.62</ele><time>2015-05-27T10:31:10Z</time></trkpt><trkpt lat="51.8385291751" lon="-2.0687070116"><ele>227.01</ele><time>2015-05-27T10:31:32Z</time></trkpt><trkpt lat="51.8385291751" lon="-2.0687069278"><ele>231.81</ele><time>2015-05-27T10:31:33Z</time></trkpt><trkpt lat="51.8385283370" lon="-2.0687065087"><ele>238.54</ele><time>2015-05-27T10:31:34Z</time></trkpt><trkpt lat="51.8385280017" lon="-2.0687063411"><ele>234.22</ele><time>2015-05-27T10:31:35Z</time></trkpt><trkpt lat="51.8385339528" lon="-2.0686734840"><ele>237.10</ele><time>2015-05-27T10:31:53Z</time></trkpt><trkpt lat="51.8385392334" lon="-2.0686754119"><ele>227.49</ele><time>2015-05-27T10:32:04Z</time></trkpt><trkpt lat="51.8385593500" lon="-2.0686406270"><ele>238.54</ele><time>2015-05-27T10:32:06Z</time></trkpt><trkpt lat="51.8385696597" lon="-2.0685948618"><ele>238.06</ele><time>2015-05-27T10:32:08Z</time></trkpt><trkpt lat="51.8385887705" lon="-2.0685402118"><ele>235.18</ele><time>2015-05-27T10:32:12Z</time></trkpt><trkpt lat="51.8386645429" lon="-2.0682988968"><ele>237.10</ele><time>2015-05-27T10:32:25Z</time></trkpt><trkpt lat="51.8386855815" lon="-2.0681649540"><ele>237.10</ele><time>2015-05-27T10:32:31Z</time></trkpt><trkpt lat="51.8386945501" lon="-2.0681222063"><ele>239.51</ele><time>2015-05-27T10:32:33Z</time></trkpt><trkpt lat="51.8387179356" lon="-2.0680733398"><ele>235.66</ele><time>2015-05-27T10:32:36Z</time></trkpt><trkpt lat="51.8387363758" lon="-2.0680398960"><ele>233.74</ele><time>2015-05-27T10:32:38Z</time></trkpt><trkpt lat="51.8387482781" lon="-2.0679980703"><ele>235.66</ele><time>2015-05-27T10:32:40Z</time></trkpt><trkpt lat="51.8387698196" lon="-2.0678477827"><ele>235.18</ele><time>2015-05-27T10:32:47Z</time></trkpt><trkpt lat="51.8387954682" lon="-2.0677690767"><ele>237.10</ele><time>2015-05-27T10:32:51Z</time></trkpt><trkpt lat="51.8388230447" lon="-2.0676425938"><ele>237.10</ele><time>2015-05-27T10:32:57Z</time></trkpt><trkpt lat="51.8388460111" lon="-2.0675679948"><ele>234.22</ele><time>2015-05-27T10:33:01Z</time></trkpt><trkpt lat="51.8388852384" lon="-2.0674745366"><ele>235.18</ele><time>2015-05-27T10:33:06Z</time></trkpt><trkpt lat="51.8389106356" lon="-2.0673603751"><ele>234.70</ele><time>2015-05-27T10:33:11Z</time></trkpt><trkpt lat="51.8389481865" lon="-2.0671835169"><ele>235.66</ele><time>2015-05-27T10:33:20Z</time></trkpt><trkpt lat="51.8389689736" lon="-2.0670743845"><ele>231.81</ele><time>2015-05-27T10:33:25Z</time></trkpt><trkpt lat="51.8389750086" lon="-2.0670032222"><ele>234.22</ele><time>2015-05-27T10:33:28Z</time></trkpt><trkpt lat="51.8389978912" lon="-2.0669136196"><ele>237.10</ele><time>2015-05-27T10:33:32Z</time></trkpt><trkpt lat="51.8390239589" lon="-2.0667937584"><ele>237.10</ele><time>2015-05-27T10:33:37Z</time></trkpt><trkpt lat="51.8390368670" lon="-2.0667584706"><ele>232.78</ele><time>2015-05-27T10:33:40Z</time></trkpt><trkpt lat="51.8390455004" lon="-2.0667265356"><ele>231.81</ele><time>2015-05-27T10:33:42Z</time></trkpt><trkpt lat="51.8390548881" lon="-2.0666850451"><ele>234.70</ele><time>2015-05-27T10:33:44Z</time></trkpt><trkpt lat="51.8390877452" lon="-2.0664677024"><ele>230.37</ele><time>2015-05-27T10:33:54Z</time></trkpt><trkpt lat="51.8390941992" lon="-2.0664346777"><ele>234.22</ele><time>2015-05-27T10:33:56Z</time></trkpt><trkpt lat="51.8390996475" lon="-2.0663993899"><ele>235.66</ele><time>2015-05-27T10:33:58Z</time></trkpt><trkpt lat="51.8391023297" lon="-2.0663925167"><ele>234.70</ele><time>2015-05-27T10:34:00Z</time></trkpt><trkpt lat="51.8390944507" lon="-2.0663664490"><ele>235.18</ele><time>2015-05-27T10:34:12Z</time></trkpt><trkpt lat="51.8391035032" lon="-2.0663739927"><ele>229.89</ele><time>2015-05-27T10:34:22Z</time></trkpt><trkpt lat="51.8391115498" lon="-2.0663690474"><ele>237.58</ele><time>2015-05-27T10:34:23Z</time></trkpt><trkpt lat="51.8391189259" lon="-2.0663695503"><ele>237.10</ele><time>2015-05-27T10:34:24Z</time></trkpt><trkpt lat="51.8391254637" lon="-2.0663732383"><ele>233.74</ele><time>2015-05-27T10:34:25Z</time></trkpt><trkpt lat="51.8391308282" lon="-2.0663820393"><ele>235.18</ele><time>2015-05-27T10:34:26Z</time></trkpt><trkpt lat="51.8391465861" lon="-2.0664168242"><ele>232.78</ele><time>2015-05-27T10:34:29Z</time></trkpt><trkpt lat="51.8391750008" lon="-2.0664925966"><ele>230.85</ele><time>2015-05-27T10:34:34Z</time></trkpt><trkpt lat="51.8391783535" lon="-2.0665025711"><ele>235.66</ele><time>2015-05-27T10:34:35Z</time></trkpt><trkpt lat="51.8391880766" lon="-2.0665312372"><ele>236.62</ele><time>2015-05-27T10:34:37Z</time></trkpt><trkpt lat="51.8391998950" lon="-2.0665988792"><ele>233.26</ele><time>2015-05-27T10:34:41Z</time></trkpt><trkpt lat="51.8392045051" lon="-2.0666162297"><ele>237.10</ele><time>2015-05-27T10:34:42Z</time></trkpt><trkpt lat="51.8392094504" lon="-2.0666373521"><ele>237.10</ele><time>2015-05-27T10:34:43Z</time></trkpt><trkpt lat="51.8392156530" lon="-2.0666575525"><ele>240.95</ele><time>2015-05-27T10:34:44Z</time></trkpt><trkpt lat="51.8392194249" lon="-2.0666746516"><ele>236.14</ele><time>2015-05-27T10:34:45Z</time></trkpt><trkpt lat="51.8392274715" lon="-2.0666979533"><ele>236.62</ele><time>2015-05-27T10:34:47Z</time></trkpt><trkpt lat="51.8392423075" lon="-2.0667298883"><ele>237.58</ele><time>2015-05-27T10:34:49Z</time></trkpt><trkpt lat="51.8392719794" lon="-2.0668109413"><ele>242.87</ele><time>2015-05-27T10:34:54Z</time></trkpt><trkpt lat="51.8392744940" lon="-2.0668243524"><ele>238.06</ele><time>2015-05-27T10:34:55Z</time></trkpt><trkpt lat="51.8392774276" lon="-2.0668343268"><ele>232.30</ele><time>2015-05-27T10:34:56Z</time></trkpt><trkpt lat="51.8392827921" lon="-2.0668453071"><ele>237.58</ele><time>2015-05-27T10:34:57Z</time></trkpt><trkpt lat="51.8393081892" lon="-2.0669036452"><ele>240.95</ele><time>2015-05-27T10:35:01Z</time></trkpt><trkpt lat="51.8393105362" lon="-2.0669156313"><ele>236.62</ele><time>2015-05-27T10:35:02Z</time></trkpt><trkpt lat="51.8393246178" lon="-2.0669533499"><ele>239.99</ele><time>2015-05-27T10:35:05Z</time></trkpt><trkpt lat="51.8393292278" lon="-2.0669634081"><ele>239.51</ele><time>2015-05-27T10:35:06Z</time></trkpt><trkpt lat="51.8393329997" lon="-2.0669969358"><ele>239.02</ele><time>2015-05-27T10:35:09Z</time></trkpt><trkpt lat="51.8393497635" lon="-2.0670520887"><ele>235.66</ele><time>2015-05-27T10:35:13Z</time></trkpt><trkpt lat="51.8393609114" lon="-2.0671031345"><ele>243.35</ele><time>2015-05-27T10:35:16Z</time></trkpt><trkpt lat="51.8393625040" lon="-2.0671154559"><ele>239.02</ele><time>2015-05-27T10:35:17Z</time></trkpt><trkpt lat="51.8393732328" lon="-2.0672054775"><ele>238.06</ele><time>2015-05-27T10:35:23Z</time></trkpt><trkpt lat="51.8393775076" lon="-2.0672309585"><ele>242.39</ele><time>2015-05-27T10:35:25Z</time></trkpt><trkpt lat="51.8393775076" lon="-2.0672324672"><ele>239.51</ele><time>2015-05-27T10:35:28Z</time></trkpt><trkpt lat="51.8393837102" lon="-2.0672255941"><ele>231.81</ele><time>2015-05-27T10:35:32Z</time></trkpt><trkpt lat="51.8393840455" lon="-2.0672255103"><ele>241.91</ele><time>2015-05-27T10:35:33Z</time></trkpt><trkpt lat="51.8393863924" lon="-2.0672250073"><ele>242.39</ele><time>2015-05-27T10:35:45Z</time></trkpt><trkpt lat="51.8393863924" lon="-2.0672250073"><ele>239.02</ele><time>2015-05-27T10:35:46Z</time></trkpt><trkpt lat="51.8393840455" lon="-2.0672337245"><ele>240.95</ele><time>2015-05-27T10:35:47Z</time></trkpt><trkpt lat="51.8393877335" lon="-2.0672693476"><ele>239.02</ele><time>2015-05-27T10:35:50Z</time></trkpt><trkpt lat="51.8393859733" lon="-2.0672810823"><ele>239.99</ele><time>2015-05-27T10:35:51Z</time></trkpt><trkpt lat="51.8393916730" lon="-2.0673161186"><ele>241.91</ele><time>2015-05-27T10:35:53Z</time></trkpt><trkpt lat="51.8393955287" lon="-2.0673688408"><ele>241.91</ele><time>2015-05-27T10:35:56Z</time></trkpt><trkpt lat="51.8394052517" lon="-2.0674322918"><ele>246.72</ele><time>2015-05-27T10:36:01Z</time></trkpt><trkpt lat="51.8394070957" lon="-2.0674468763"><ele>239.51</ele><time>2015-05-27T10:36:02Z</time></trkpt><trkpt lat="51.8394100294" lon="-2.0674657356"><ele>242.39</ele><time>2015-05-27T10:36:03Z</time></trkpt><trkpt lat="51.8394087721" lon="-2.0675124228"><ele>243.83</ele><time>2015-05-27T10:36:06Z</time></trkpt><trkpt lat="51.8394063413" lon="-2.0675460342"><ele>243.35</ele><time>2015-05-27T10:36:08Z</time></trkpt><trkpt lat="51.8394067604" lon="-2.0676080603"><ele>242.87</ele><time>2015-05-27T10:36:12Z</time></trkpt><trkpt lat="51.8394132983" lon="-2.0676549990"><ele>241.43</ele><time>2015-05-27T10:36:15Z</time></trkpt><trkpt lat="51.8394145556" lon="-2.0676754508"><ele>239.51</ele><time>2015-05-27T10:36:16Z</time></trkpt><trkpt lat="51.8394162320" lon="-2.0677127503"><ele>243.83</ele><time>2015-05-27T10:36:18Z</time></trkpt><trkpt lat="51.8394175731" lon="-2.0677356329"><ele>239.02</ele><time>2015-05-27T10:36:20Z</time></trkpt><trkpt lat="51.8394200038" lon="-2.0677517261"><ele>244.31</ele><time>2015-05-27T10:36:21Z</time></trkpt><trkpt lat="51.8394257035" lon="-2.0677965693"><ele>239.99</ele><time>2015-05-27T10:36:24Z</time></trkpt><trkpt lat="51.8394252844" lon="-2.0678746048"><ele>240.95</ele><time>2015-05-27T10:36:28Z</time></trkpt><trkpt lat="51.8394215964" lon="-2.0678865071"><ele>245.27</ele><time>2015-05-27T10:36:29Z</time></trkpt><trkpt lat="51.8394196685" lon="-2.0679036900"><ele>241.91</ele><time>2015-05-27T10:36:30Z</time></trkpt><trkpt lat="51.8394171540" lon="-2.0679245610"><ele>245.27</ele><time>2015-05-27T10:36:31Z</time></trkpt><trkpt lat="51.8394071795" lon="-2.0680287480"><ele>248.16</ele><time>2015-05-27T10:36:37Z</time></trkpt><trkpt lat="51.8394051678" lon="-2.0680630300"><ele>242.39</ele><time>2015-05-27T10:36:39Z</time></trkpt><trkpt lat="51.8394008093" lon="-2.0680826437"><ele>245.75</ele><time>2015-05-27T10:36:40Z</time></trkpt><trkpt lat="51.8393840455" lon="-2.0681985654"><ele>248.16</ele><time>2015-05-27T10:36:47Z</time></trkpt><trkpt lat="51.8393847998" lon="-2.0682703145"><ele>250.08</ele><time>2015-05-27T10:36:51Z</time></trkpt><trkpt lat="51.8393736519" lon="-2.0683094580"><ele>247.20</ele><time>2015-05-27T10:36:53Z</time></trkpt><trkpt lat="51.8393673655" lon="-2.0683707297"><ele>248.16</ele><time>2015-05-27T10:36:57Z</time></trkpt><trkpt lat="51.8393655214" lon="-2.0683842245"><ele>243.35</ele><time>2015-05-27T10:36:58Z</time></trkpt><trkpt lat="51.8393532839" lon="-2.0684985537"><ele>250.56</ele><time>2015-05-27T10:37:05Z</time></trkpt><trkpt lat="51.8393609952" lon="-2.0685493480"><ele>246.23</ele><time>2015-05-27T10:37:08Z</time></trkpt><trkpt lat="51.8393586483" lon="-2.0686415490"><ele>242.39</ele><time>2015-05-27T10:37:13Z</time></trkpt><trkpt lat="51.8393527810" lon="-2.0686553791"><ele>249.60</ele><time>2015-05-27T10:37:14Z</time></trkpt><trkpt lat="51.8393389508" lon="-2.0686982106"><ele>247.20</ele><time>2015-05-27T10:37:18Z</time></trkpt><trkpt lat="51.8393380288" lon="-2.0687431376"><ele>252.00</ele><time>2015-05-27T10:37:21Z</time></trkpt><trkpt lat="51.8393399566" lon="-2.0687682834"><ele>248.64</ele><time>2015-05-27T10:37:23Z</time></trkpt><trkpt lat="51.8393361010" lon="-2.0688339975"><ele>246.72</ele><time>2015-05-27T10:37:28Z</time></trkpt><trkpt lat="51.8393329158" lon="-2.0688698720"><ele>248.64</ele><time>2015-05-27T10:37:30Z</time></trkpt><trkpt lat="51.8393310718" lon="-2.0688920841"><ele>252.48</ele><time>2015-05-27T10:37:31Z</time></trkpt><trkpt lat="51.8393256236" lon="-2.0689617377"><ele>249.12</ele><time>2015-05-27T10:37:35Z</time></trkpt><trkpt lat="51.8393229414" lon="-2.0689988695"><ele>252.96</ele><time>2015-05-27T10:37:37Z</time></trkpt><trkpt lat="51.8393198401" lon="-2.0690181479"><ele>250.56</ele><time>2015-05-27T10:37:39Z</time></trkpt><trkpt lat="51.8393203430" lon="-2.0690515079"><ele>252.00</ele><time>2015-05-27T10:37:41Z</time></trkpt><trkpt lat="51.8393173255" lon="-2.0690855384"><ele>252.00</ele><time>2015-05-27T10:37:44Z</time></trkpt><trkpt lat="51.8393084407" lon="-2.0691389311"><ele>248.64</ele><time>2015-05-27T10:37:48Z</time></trkpt><trkpt lat="51.8393072672" lon="-2.0691558626"><ele>252.96</ele><time>2015-05-27T10:37:49Z</time></trkpt><trkpt lat="51.8393048365" lon="-2.0692822617"><ele>251.52</ele><time>2015-05-27T10:37:58Z</time></trkpt><trkpt lat="51.8392967898" lon="-2.0693618897"><ele>254.89</ele><time>2015-05-27T10:38:03Z</time></trkpt><trkpt lat="51.8392979633" lon="-2.0694116782"><ele>252.00</ele><time>2015-05-27T10:38:06Z</time></trkpt><trkpt lat="51.8392898329" lon="-2.0694683399"><ele>255.37</ele><time>2015-05-27T10:38:10Z</time></trkpt><trkpt lat="51.8392812833" lon="-2.0694878697"><ele>252.48</ele><time>2015-05-27T10:38:12Z</time></trkpt><trkpt lat="51.8392750807" lon="-2.0695506502"><ele>254.89</ele><time>2015-05-27T10:38:16Z</time></trkpt><trkpt lat="51.8392621726" lon="-2.0696083177"><ele>254.89</ele><time>2015-05-27T10:38:20Z</time></trkpt><trkpt lat="51.8392638490" lon="-2.0697131753"><ele>259.21</ele><time>2015-05-27T10:38:27Z</time></trkpt><trkpt lat="51.8392594904" lon="-2.0697228145"><ele>255.37</ele><time>2015-05-27T10:38:28Z</time></trkpt><trkpt lat="51.8392547965" lon="-2.0697624609"><ele>260.65</ele><time>2015-05-27T10:38:31Z</time></trkpt><trkpt lat="51.8392549641" lon="-2.0697782189"><ele>254.41</ele><time>2015-05-27T10:38:32Z</time></trkpt><trkpt lat="51.8392530363" lon="-2.0697901212"><ele>257.77</ele><time>2015-05-27T10:38:33Z</time></trkpt><trkpt lat="51.8392464984" lon="-2.0698271692"><ele>260.65</ele><time>2015-05-27T10:38:36Z</time></trkpt><trkpt lat="51.8392441515" lon="-2.0698373113"><ele>257.29</ele><time>2015-05-27T10:38:37Z</time></trkpt><trkpt lat="51.8392403796" lon="-2.0698521473"><ele>257.29</ele><time>2015-05-27T10:38:38Z</time></trkpt><trkpt lat="51.8392370269" lon="-2.0698819030"><ele>262.10</ele><time>2015-05-27T10:38:40Z</time></trkpt><trkpt lat="51.8392373621" lon="-2.0698910393"><ele>257.77</ele><time>2015-05-27T10:38:41Z</time></trkpt><trkpt lat="51.8392390385" lon="-2.0699376427"><ele>262.10</ele><time>2015-05-27T10:38:44Z</time></trkpt><trkpt lat="51.8392384518" lon="-2.0699491259"><ele>256.81</ele><time>2015-05-27T10:38:45Z</time></trkpt><trkpt lat="51.8392369431" lon="-2.0699601900"><ele>260.17</ele><time>2015-05-27T10:38:46Z</time></trkpt><trkpt lat="51.8392354343" lon="-2.0700018480"><ele>260.65</ele><time>2015-05-27T10:38:48Z</time></trkpt><trkpt lat="51.8392302375" lon="-2.0700457692"><ele>258.73</ele><time>2015-05-27T10:38:51Z</time></trkpt><trkpt lat="51.8392285611" lon="-2.0700865891"><ele>264.50</ele><time>2015-05-27T10:38:53Z</time></trkpt><trkpt lat="51.8392266333" lon="-2.0700957254"><ele>257.77</ele><time>2015-05-27T10:38:54Z</time></trkpt><trkpt lat="51.8392258789" lon="-2.0701084659"><ele>261.62</ele><time>2015-05-27T10:38:55Z</time></trkpt><trkpt lat="51.8392280582" lon="-2.0701437537"><ele>258.25</ele><time>2015-05-27T10:38:57Z</time></trkpt><trkpt lat="51.8392262142" lon="-2.0701538958"><ele>261.62</ele><time>2015-05-27T10:38:58Z</time></trkpt><trkpt lat="51.8392197601" lon="-2.0702043548"><ele>264.98</ele><time>2015-05-27T10:39:01Z</time></trkpt><trkpt lat="51.8392188381" lon="-2.0702187717"><ele>256.33</ele><time>2015-05-27T10:39:02Z</time></trkpt><trkpt lat="51.8392159883" lon="-2.0702360384"><ele>262.10</ele><time>2015-05-27T10:39:03Z</time></trkpt><trkpt lat="51.8392180000" lon="-2.0702740923"><ele>262.10</ele><time>2015-05-27T10:39:05Z</time></trkpt><trkpt lat="51.8392138090" lon="-2.0703005791"><ele>262.58</ele><time>2015-05-27T10:39:07Z</time></trkpt><trkpt lat="51.8392050918" lon="-2.0703525469"><ele>261.14</ele><time>2015-05-27T10:39:10Z</time></trkpt><trkpt lat="51.8391980510" lon="-2.0703898463"><ele>263.06</ele><time>2015-05-27T10:39:12Z</time></trkpt><trkpt lat="51.8391954526" lon="-2.0704228710"><ele>262.10</ele><time>2015-05-27T10:39:14Z</time></trkpt><trkpt lat="51.8391992245" lon="-2.0704674628"><ele>266.90</ele><time>2015-05-27T10:39:17Z</time></trkpt><trkpt lat="51.8391978834" lon="-2.0704770181"><ele>258.73</ele><time>2015-05-27T10:39:18Z</time></trkpt><trkpt lat="51.8391983863" lon="-2.0704868250"><ele>262.58</ele><time>2015-05-27T10:39:19Z</time></trkpt><trkpt lat="51.8392117973" lon="-2.0705244597"><ele>262.58</ele><time>2015-05-27T10:39:34Z</time></trkpt><trkpt lat="51.8392024096" lon="-2.0705444086"><ele>263.06</ele><time>2015-05-27T10:39:52Z</time></trkpt><trkpt lat="51.8391883280" lon="-2.0706042554"><ele>260.17</ele><time>2015-05-27T10:40:01Z</time></trkpt><trkpt lat="51.8391838856" lon="-2.0706151519"><ele>263.54</ele><time>2015-05-27T10:40:02Z</time></trkpt><trkpt lat="51.8391589075" lon="-2.0707080234"><ele>264.50</ele><time>2015-05-27T10:40:09Z</time></trkpt><trkpt lat="51.8391397968" lon="-2.0707690436"><ele>264.50</ele><time>2015-05-27T10:40:25Z</time></trkpt><trkpt lat="51.8391330075" lon="-2.0708008111"><ele>263.06</ele><time>2015-05-27T10:40:27Z</time></trkpt><trkpt lat="51.8391388748" lon="-2.0708651002"><ele>265.94</ele><time>2015-05-27T10:40:38Z</time></trkpt><trkpt lat="51.8391335104" lon="-2.0708852168"><ele>271.71</ele><time>2015-05-27T10:40:39Z</time></trkpt><trkpt lat="51.8391281459" lon="-2.0709020644"><ele>265.94</ele><time>2015-05-27T10:40:40Z</time></trkpt><trkpt lat="51.8391093705" lon="-2.0709749032"><ele>265.94</ele><time>2015-05-27T10:40:45Z</time></trkpt><trkpt lat="51.8391045928" lon="-2.0709844586"><ele>262.10</ele><time>2015-05-27T10:40:46Z</time></trkpt><trkpt lat="51.8391002342" lon="-2.0709974505"><ele>265.46</ele><time>2015-05-27T10:40:47Z</time></trkpt><trkpt lat="51.8390868232" lon="-2.0710441377"><ele>262.58</ele><time>2015-05-27T10:40:50Z</time></trkpt><trkpt lat="51.8390809558" lon="-2.0710701216"><ele>263.54</ele><time>2015-05-27T10:40:52Z</time></trkpt><trkpt lat="51.8390724901" lon="-2.0711497497"><ele>266.42</ele><time>2015-05-27T10:40:57Z</time></trkpt><trkpt lat="51.8390639406" lon="-2.0711966045"><ele>264.50</ele><time>2015-05-27T10:41:00Z</time></trkpt><trkpt lat="51.8390522897" lon="-2.0712603070"><ele>271.23</ele><time>2015-05-27T10:41:04Z</time></trkpt><trkpt lat="51.8390485179" lon="-2.0712727122"><ele>265.46</ele><time>2015-05-27T10:41:05Z</time></trkpt><trkpt lat="51.8390406389" lon="-2.0713253506"><ele>269.79</ele><time>2015-05-27T10:41:08Z</time></trkpt><trkpt lat="51.8390377890" lon="-2.0713394322"><ele>266.42</ele><time>2015-05-27T10:41:09Z</time></trkpt><trkpt lat="51.8390256353" lon="-2.0713804197"><ele>269.79</ele><time>2015-05-27T10:41:12Z</time></trkpt><trkpt lat="51.8390192650" lon="-2.0714069903"><ele>266.42</ele><time>2015-05-27T10:41:14Z</time></trkpt><trkpt lat="51.8390057702" lon="-2.0715124346"><ele>268.35</ele><time>2015-05-27T10:41:21Z</time></trkpt><trkpt lat="51.8389917724" lon="-2.0715473872"><ele>268.83</ele><time>2015-05-27T10:41:23Z</time></trkpt><trkpt lat="51.8389833067" lon="-2.0715922303"><ele>268.83</ele><time>2015-05-27T10:41:26Z</time></trkpt><trkpt lat="51.8389812950" lon="-2.0716339722"><ele>267.38</ele><time>2015-05-27T10:41:28Z</time></trkpt><trkpt lat="51.8389800377" lon="-2.0716706011"><ele>268.83</ele><time>2015-05-27T10:41:31Z</time></trkpt><trkpt lat="51.8389799539" lon="-2.0716708526"><ele>264.50</ele><time>2015-05-27T10:41:32Z</time></trkpt><trkpt lat="51.8389896769" lon="-2.0716556814"><ele>269.31</ele><time>2015-05-27T10:41:34Z</time></trkpt><trkpt lat="51.8389910180" lon="-2.0716859400"><ele>268.83</ele><time>2015-05-27T10:41:51Z</time></trkpt><trkpt lat="51.8389600888" lon="-2.0718656480"><ele>272.67</ele><time>2015-05-27T10:42:03Z</time></trkpt><trkpt lat="51.8389577419" lon="-2.0718778018"><ele>266.90</ele><time>2015-05-27T10:42:04Z</time></trkpt><trkpt lat="51.8389538862" lon="-2.0718901232"><ele>269.79</ele><time>2015-05-27T10:42:05Z</time></trkpt><trkpt lat="51.8389419001" lon="-2.0719707571"><ele>266.42</ele><time>2015-05-27T10:42:10Z</time></trkpt><trkpt lat="51.8389391340" lon="-2.0719845034"><ele>270.27</ele><time>2015-05-27T10:42:11Z</time></trkpt><trkpt lat="51.8389266450" lon="-2.0720722619"><ele>273.15</ele><time>2015-05-27T10:42:17Z</time></trkpt><trkpt lat="51.8389245495" lon="-2.0720886905"><ele>268.83</ele><time>2015-05-27T10:42:18Z</time></trkpt><trkpt lat="51.8389216997" lon="-2.0721207093"><ele>271.23</ele><time>2015-05-27T10:42:20Z</time></trkpt><trkpt lat="51.8389269803" lon="-2.0721797179"><ele>274.59</ele><time>2015-05-27T10:42:23Z</time></trkpt><trkpt lat="51.8389268126" lon="-2.0721955597"><ele>269.79</ele><time>2015-05-27T10:42:24Z</time></trkpt><trkpt lat="51.8389268965" lon="-2.0722143352"><ele>269.79</ele><time>2015-05-27T10:42:25Z</time></trkpt><trkpt lat="51.8389237951" lon="-2.0722487848"><ele>275.07</ele><time>2015-05-27T10:42:27Z</time></trkpt><trkpt lat="51.8389235437" lon="-2.0722638723"><ele>269.31</ele><time>2015-05-27T10:42:28Z</time></trkpt><trkpt lat="51.8389294110" lon="-2.0723564085"><ele>270.75</ele><time>2015-05-27T10:42:34Z</time></trkpt><trkpt lat="51.8389336020" lon="-2.0723856613"><ele>273.15</ele><time>2015-05-27T10:42:36Z</time></trkpt><trkpt lat="51.8389354460" lon="-2.0724086277"><ele>268.35</ele><time>2015-05-27T10:42:38Z</time></trkpt><trkpt lat="51.8389360327" lon="-2.0724202786"><ele>273.63</ele><time>2015-05-27T10:42:39Z</time></trkpt><trkpt lat="51.8389444146" lon="-2.0724696480"><ele>269.31</ele><time>2015-05-27T10:42:42Z</time></trkpt><trkpt lat="51.8389477674" lon="-2.0724823046"><ele>275.07</ele><time>2015-05-27T10:42:43Z</time></trkpt><trkpt lat="51.8389754277" lon="-2.0725837257"><ele>276.04</ele><time>2015-05-27T10:42:49Z</time></trkpt><trkpt lat="51.8389753439" lon="-2.0726301614"><ele>270.75</ele><time>2015-05-27T10:42:52Z</time></trkpt><trkpt lat="51.8389754277" lon="-2.0726439077"><ele>276.04</ele><time>2015-05-27T10:42:53Z</time></trkpt><trkpt lat="51.8389829714" lon="-2.0726933610"><ele>272.67</ele><time>2015-05-27T10:42:56Z</time></trkpt><trkpt lat="51.8389874138" lon="-2.0727105439"><ele>273.63</ele><time>2015-05-27T10:42:57Z</time></trkpt><trkpt lat="51.8389935326" lon="-2.0727454964"><ele>276.04</ele><time>2015-05-27T10:42:59Z</time></trkpt><trkpt lat="51.8390003219" lon="-2.0727580693"><ele>275.56</ele><time>2015-05-27T10:43:08Z</time></trkpt><trkpt lat="51.8390108831" lon="-2.0728149824"><ele>274.11</ele><time>2015-05-27T10:43:12Z</time></trkpt><trkpt lat="51.8390183430" lon="-2.0728661120"><ele>277.00</ele><time>2015-05-27T10:43:15Z</time></trkpt><trkpt lat="51.8390249647" lon="-2.0729045011"><ele>272.67</ele><time>2015-05-27T10:43:21Z</time></trkpt><trkpt lat="51.8390284013" lon="-2.0728894137"><ele>274.11</ele><time>2015-05-27T10:43:22Z</time></trkpt><trkpt lat="51.8390270602" lon="-2.0728540421"><ele>277.00</ele><time>2015-05-27T10:43:24Z</time></trkpt><trkpt lat="51.8390222825" lon="-2.0728378650"><ele>276.04</ele><time>2015-05-27T10:43:26Z</time></trkpt><trkpt lat="51.8390194327" lon="-2.0727901720"><ele>277.48</ele><time>2015-05-27T10:43:36Z</time></trkpt><trkpt lat="51.8390519544" lon="-2.0727496035"><ele>272.19</ele><time>2015-05-27T10:43:42Z</time></trkpt><trkpt lat="51.8390541337" lon="-2.0727518667"><ele>279.40</ele><time>2015-05-27T10:43:43Z</time></trkpt><trkpt lat="51.8390574865" lon="-2.0727522019"><ele>275.56</ele><time>2015-05-27T10:43:45Z</time></trkpt><trkpt lat="51.8390602525" lon="-2.0727506932"><ele>276.04</ele><time>2015-05-27T10:43:46Z</time></trkpt><trkpt lat="51.8390736636" lon="-2.0727475081"><ele>275.56</ele><time>2015-05-27T10:44:12Z</time></trkpt><trkpt lat="51.8390796985" lon="-2.0727508608"><ele>274.11</ele><time>2015-05-27T10:44:31Z</time></trkpt><trkpt lat="51.8390805367" lon="-2.0727511123"><ele>276.52</ele><time>2015-05-27T10:44:33Z</time></trkpt><trkpt lat="51.8390755914" lon="-2.0727432333"><ele>281.80</ele><time>2015-05-27T10:44:37Z</time></trkpt><trkpt lat="51.8390750047" lon="-2.0727434848"><ele>278.92</ele><time>2015-05-27T10:44:38Z</time></trkpt><trkpt lat="51.8390746694" lon="-2.0727434848"><ele>282.77</ele><time>2015-05-27T10:44:39Z</time></trkpt><trkpt lat="51.8390740827" lon="-2.0727298222"><ele>273.15</ele><time>2015-05-27T10:44:40Z</time></trkpt><trkpt lat="51.8390693888" lon="-2.0727226138"><ele>276.04</ele><time>2015-05-27T10:44:41Z</time></trkpt><trkpt lat="51.8390551396" lon="-2.0727348514"><ele>273.15</ele><time>2015-05-27T10:44:43Z</time></trkpt><trkpt lat="51.8390368670" lon="-2.0728333388"><ele>275.56</ele><time>2015-05-27T10:44:50Z</time></trkpt><trkpt lat="51.8390560616" lon="-2.0729342569"><ele>276.04</ele><time>2015-05-27T10:44:57Z</time></trkpt><trkpt lat="51.8390802853" lon="-2.0730374381"><ele>276.52</ele><time>2015-05-27T10:45:03Z</time></trkpt><trkpt lat="51.8391319178" lon="-2.0732005499"><ele>277.48</ele><time>2015-05-27T10:45:13Z</time></trkpt><trkpt lat="51.8391528726" lon="-2.0732651744"><ele>278.44</ele><time>2015-05-27T10:45:17Z</time></trkpt><trkpt lat="51.8391649425" lon="-2.0732990373"><ele>273.63</ele><time>2015-05-27T10:45:19Z</time></trkpt><trkpt lat="51.8391712289" lon="-2.0733178966"><ele>275.56</ele><time>2015-05-27T10:45:20Z</time></trkpt><trkpt lat="51.8391857296" lon="-2.0733579621"><ele>277.96</ele><time>2015-05-27T10:45:22Z</time></trkpt><trkpt lat="51.8392181676" lon="-2.0734546054"><ele>275.56</ele><time>2015-05-27T10:45:27Z</time></trkpt><trkpt lat="51.8392258789" lon="-2.0735069923"><ele>278.44</ele><time>2015-05-27T10:45:30Z</time></trkpt><trkpt lat="51.8392306566" lon="-2.0735284500"><ele>277.96</ele><time>2015-05-27T10:45:31Z</time></trkpt><trkpt lat="51.8392637651" lon="-2.0736303739"><ele>278.44</ele><time>2015-05-27T10:45:36Z</time></trkpt><trkpt lat="51.8392776791" lon="-2.0737046376"><ele>278.44</ele><time>2015-05-27T10:45:40Z</time></trkpt><trkpt lat="51.8392975442" lon="-2.0737833437"><ele>275.56</ele><time>2015-05-27T10:45:44Z</time></trkpt><trkpt lat="51.8393023219" lon="-2.0738433581"><ele>273.63</ele><time>2015-05-27T10:45:47Z</time></trkpt><trkpt lat="51.8393079378" lon="-2.0738594513"><ele>277.00</ele><time>2015-05-27T10:45:48Z</time></trkpt><trkpt lat="51.8393191695" lon="-2.0738888718"><ele>278.44</ele><time>2015-05-27T10:45:50Z</time></trkpt><trkpt lat="51.8393448181" lon="-2.0739512332"><ele>275.56</ele><time>2015-05-27T10:45:54Z</time></trkpt><trkpt lat="51.8393822853" lon="-2.0740363933"><ele>278.92</ele><time>2015-05-27T10:45:59Z</time></trkpt><trkpt lat="51.8393969536" lon="-2.0740772970"><ele>275.56</ele><time>2015-05-27T10:46:02Z</time></trkpt><trkpt lat="51.8394094426" lon="-2.0741301030"><ele>280.36</ele><time>2015-05-27T10:46:05Z</time></trkpt><trkpt lat="51.8394213449" lon="-2.0741626248"><ele>276.04</ele><time>2015-05-27T10:46:07Z</time></trkpt><trkpt lat="51.8394235242" lon="-2.0741782989"><ele>279.88</ele><time>2015-05-27T10:46:08Z</time></trkpt><trkpt lat="51.8394255359" lon="-2.0741951466"><ele>277.48</ele><time>2015-05-27T10:46:09Z</time></trkpt><trkpt lat="51.8394521903" lon="-2.0742596872"><ele>278.92</ele><time>2015-05-27T10:46:13Z</time></trkpt><trkpt lat="51.8394765817" lon="-2.0743114036"><ele>275.56</ele><time>2015-05-27T10:46:16Z</time></trkpt><trkpt lat="51.8394806050" lon="-2.0743305981"><ele>277.00</ele><time>2015-05-27T10:46:17Z</time></trkpt><trkpt lat="51.8394878972" lon="-2.0743711665"><ele>279.40</ele><time>2015-05-27T10:46:19Z</time></trkpt><trkpt lat="51.8395167310" lon="-2.0744515490"><ele>284.21</ele><time>2015-05-27T10:46:23Z</time></trkpt><trkpt lat="51.8395225145" lon="-2.0744586736"><ele>278.44</ele><time>2015-05-27T10:46:24Z</time></trkpt><trkpt lat="51.8395248614" lon="-2.0744615234"><ele>285.17</ele><time>2015-05-27T10:46:25Z</time></trkpt><trkpt lat="51.8395249452" lon="-2.0744611882"><ele>276.04</ele><time>2015-05-27T10:46:26Z</time></trkpt><trkpt lat="51.8395250291" lon="-2.0744607691"><ele>281.80</ele><time>2015-05-27T10:46:27Z</time></trkpt><trkpt lat="51.8395256158" lon="-2.0744608529"><ele>276.52</ele><time>2015-05-27T10:46:28Z</time></trkpt><trkpt lat="51.8395262025" lon="-2.0744621102"><ele>268.35</ele><time>2015-05-27T10:46:31Z</time></trkpt><trkpt lat="51.8395234365" lon="-2.0744656306"><ele>280.36</ele><time>2015-05-27T10:46:32Z</time></trkpt><trkpt lat="51.8395233527" lon="-2.0744657144"><ele>283.73</ele><time>2015-05-27T10:46:33Z</time></trkpt><trkpt lat="51.8395273760" lon="-2.0744647086"><ele>279.88</ele><time>2015-05-27T10:46:34Z</time></trkpt><trkpt lat="51.8395290524" lon="-2.0744613558"><ele>278.92</ele><time>2015-05-27T10:46:36Z</time></trkpt><trkpt lat="51.8395316508" lon="-2.0744748507"><ele>282.77</ele><time>2015-05-27T10:46:39Z</time></trkpt><trkpt lat="51.8395333271" lon="-2.0744912792"><ele>277.96</ele><time>2015-05-27T10:46:40Z</time></trkpt><trkpt lat="51.8395452294" lon="-2.0745667163"><ele>278.44</ele><time>2015-05-27T10:46:44Z</time></trkpt><trkpt lat="51.8395624124" lon="-2.0746042673"><ele>276.04</ele><time>2015-05-27T10:46:46Z</time></trkpt><trkpt lat="51.8395712972" lon="-2.0746232942"><ele>279.40</ele><time>2015-05-27T10:46:47Z</time></trkpt><trkpt lat="51.8395799305" lon="-2.0746456739"><ele>279.40</ele><time>2015-05-27T10:46:48Z</time></trkpt><trkpt lat="51.8396086805" lon="-2.0747195184"><ele>283.25</ele><time>2015-05-27T10:46:51Z</time></trkpt><trkpt lat="51.8396152183" lon="-2.0747397188"><ele>279.40</ele><time>2015-05-27T10:46:52Z</time></trkpt><trkpt lat="51.8396236002" lon="-2.0747686364"><ele>276.04</ele><time>2015-05-27T10:46:54Z</time></trkpt><trkpt lat="51.8396271206" lon="-2.0747857355"><ele>277.48</ele><time>2015-05-27T10:46:55Z</time></trkpt><trkpt lat="51.8396603130" lon="-2.0748754218"><ele>279.40</ele><time>2015-05-27T10:47:00Z</time></trkpt><trkpt lat="51.8396944273" lon="-2.0749625098"><ele>276.04</ele><time>2015-05-27T10:47:05Z</time></trkpt><trkpt lat="51.8396984506" lon="-2.0749743283"><ele>276.52</ele><time>2015-05-27T10:47:06Z</time></trkpt><trkpt lat="51.8397038989" lon="-2.0749913435"><ele>280.84</ele><time>2015-05-27T10:47:07Z</time></trkpt><trkpt lat="51.8397094309" lon="-2.0750137232"><ele>280.84</ele><time>2015-05-27T10:47:08Z</time></trkpt><trkpt lat="51.8397151306" lon="-2.0750324987"><ele>277.00</ele><time>2015-05-27T10:47:09Z</time></trkpt><trkpt lat="51.8397175614" lon="-2.0750545431"><ele>278.44</ele><time>2015-05-27T10:47:10Z</time></trkpt><trkpt lat="51.8397337385" lon="-2.0751575567"><ele>281.80</ele><time>2015-05-27T10:47:14Z</time></trkpt><trkpt lat="51.8397379294" lon="-2.0751749072"><ele>282.28</ele><time>2015-05-27T10:47:15Z</time></trkpt><trkpt lat="51.8397427071" lon="-2.0751889888"><ele>279.40</ele><time>2015-05-27T10:47:16Z</time></trkpt><trkpt lat="51.8397447187" lon="-2.0752703771"><ele>280.36</ele><time>2015-05-27T10:47:20Z</time></trkpt><trkpt lat="51.8397501670" lon="-2.0752944332"><ele>280.84</ele><time>2015-05-27T10:47:21Z</time></trkpt><trkpt lat="51.8397743907" lon="-2.0753753185"><ele>279.88</ele><time>2015-05-27T10:47:25Z</time></trkpt><trkpt lat="51.8397888914" lon="-2.0754158869"><ele>282.28</ele><time>2015-05-27T10:47:28Z</time></trkpt><trkpt lat="51.8397884723" lon="-2.0754555333"><ele>274.59</ele><time>2015-05-27T10:47:30Z</time></trkpt><trkpt lat="51.8397915736" lon="-2.0754774939"><ele>279.40</ele><time>2015-05-27T10:47:31Z</time></trkpt><trkpt lat="51.8398006260" lon="-2.0755245164"><ele>280.84</ele><time>2015-05-27T10:47:33Z</time></trkpt><trkpt lat="51.8398092594" lon="-2.0755940024"><ele>282.28</ele><time>2015-05-27T10:47:36Z</time></trkpt><trkpt lat="51.8398182280" lon="-2.0756236743"><ele>276.52</ele><time>2015-05-27T10:47:38Z</time></trkpt><trkpt lat="51.8398228381" lon="-2.0756390970"><ele>279.88</ele><time>2015-05-27T10:47:39Z</time></trkpt><trkpt lat="51.8398347404" lon="-2.0757026318"><ele>276.04</ele><time>2015-05-27T10:47:42Z</time></trkpt><trkpt lat="51.8398393504" lon="-2.0757263526"><ele>278.92</ele><time>2015-05-27T10:47:43Z</time></trkpt><trkpt lat="51.8398448825" lon="-2.0757479779"><ele>282.28</ele><time>2015-05-27T10:47:44Z</time></trkpt><trkpt lat="51.8398795836" lon="-2.0758622233"><ele>277.00</ele><time>2015-05-27T10:47:50Z</time></trkpt><trkpt lat="51.8398836069" lon="-2.0758791547"><ele>283.73</ele><time>2015-05-27T10:47:51Z</time></trkpt><trkpt lat="51.8399375863" lon="-2.0761052985"><ele>277.00</ele><time>2015-05-27T10:48:02Z</time></trkpt><trkpt lat="51.8399399333" lon="-2.0761208888"><ele>281.80</ele><time>2015-05-27T10:48:03Z</time></trkpt><trkpt lat="51.8399426155" lon="-2.0761406701"><ele>279.40</ele><time>2015-05-27T10:48:04Z</time></trkpt><trkpt lat="51.8399530929" lon="-2.0761758741"><ele>278.92</ele><time>2015-05-27T10:48:06Z</time></trkpt><trkpt lat="51.8399729580" lon="-2.0762893651"><ele>284.69</ele><time>2015-05-27T10:48:17Z</time></trkpt><trkpt lat="51.8399847765" lon="-2.0763782971"><ele>277.00</ele><time>2015-05-27T10:48:21Z</time></trkpt><trkpt lat="51.8399869557" lon="-2.0764058735"><ele>279.88</ele><time>2015-05-27T10:48:22Z</time></trkpt><trkpt lat="51.8399937451" lon="-2.0764545724"><ele>282.28</ele><time>2015-05-27T10:48:24Z</time></trkpt><trkpt lat="51.8400337268" lon="-2.0766141638"><ele>280.84</ele><time>2015-05-27T10:48:32Z</time></trkpt><trkpt lat="51.8400333077" lon="-2.0766532235"><ele>278.92</ele><time>2015-05-27T10:48:34Z</time></trkpt><trkpt lat="51.8400402647" lon="-2.0766983181"><ele>282.28</ele><time>2015-05-27T10:48:36Z</time></trkpt><trkpt lat="51.8400536757" lon="-2.0767598413"><ele>285.65</ele><time>2015-05-27T10:48:39Z</time></trkpt><trkpt lat="51.8400638178" lon="-2.0767981466"><ele>282.28</ele><time>2015-05-27T10:48:41Z</time></trkpt><trkpt lat="51.8400685955" lon="-2.0768115576"><ele>285.65</ele><time>2015-05-27T10:48:42Z</time></trkpt><trkpt lat="51.8400729541" lon="-2.0768281538"><ele>282.77</ele><time>2015-05-27T10:48:43Z</time></trkpt><trkpt lat="51.8400764745" lon="-2.0768470131"><ele>279.88</ele><time>2015-05-27T10:48:44Z</time></trkpt><trkpt lat="51.8400915619" lon="-2.0769123081"><ele>282.77</ele><time>2015-05-27T10:48:47Z</time></trkpt><trkpt lat="51.8400958367" lon="-2.0769320894"><ele>282.77</ele><time>2015-05-27T10:48:48Z</time></trkpt><trkpt lat="51.8401192222" lon="-2.0770680439"><ele>286.13</ele><time>2015-05-27T10:48:54Z</time></trkpt><trkpt lat="51.8401237484" lon="-2.0770964585"><ele>280.84</ele><time>2015-05-27T10:48:56Z</time></trkpt><trkpt lat="51.8401300348" lon="-2.0772065129"><ele>284.21</ele><time>2015-05-27T10:49:01Z</time></trkpt><trkpt lat="51.8401338905" lon="-2.0772301499"><ele>284.21</ele><time>2015-05-27T10:49:02Z</time></trkpt><trkpt lat="51.8401611317" lon="-2.0773795154"><ele>281.32</ele><time>2015-05-27T10:49:09Z</time></trkpt><trkpt lat="51.8401709385" lon="-2.0774396975"><ele>282.77</ele><time>2015-05-27T10:49:12Z</time></trkpt><trkpt lat="51.8402092438" lon="-2.0776111074"><ele>279.88</ele><time>2015-05-27T10:49:21Z</time></trkpt><trkpt lat="51.8402120098" lon="-2.0776315592"><ele>281.80</ele><time>2015-05-27T10:49:22Z</time></trkpt><trkpt lat="51.8402170390" lon="-2.0776758157"><ele>283.73</ele><time>2015-05-27T10:49:24Z</time></trkpt><trkpt lat="51.8402348924" lon="-2.0777352434"><ele>285.17</ele><time>2015-05-27T10:49:27Z</time></trkpt><trkpt lat="51.8402404245" lon="-2.0777612273"><ele>280.36</ele><time>2015-05-27T10:49:29Z</time></trkpt><trkpt lat="51.8402611278" lon="-2.0778898057"><ele>282.28</ele><time>2015-05-27T10:49:37Z</time></trkpt><trkpt lat="51.8402669951" lon="-2.0779211540"><ele>283.73</ele><time>2015-05-27T10:49:39Z</time></trkpt><trkpt lat="51.8402706832" lon="-2.0779379178"><ele>286.61</ele><time>2015-05-27T10:49:40Z</time></trkpt><trkpt lat="51.8402743712" lon="-2.0779537596"><ele>282.77</ele><time>2015-05-27T10:49:41Z</time></trkpt><trkpt lat="51.8402779754" lon="-2.0779675059"><ele>278.44</ele><time>2015-05-27T10:49:42Z</time></trkpt><trkpt lat="51.8402810767" lon="-2.0779807493"><ele>283.25</ele><time>2015-05-27T10:49:43Z</time></trkpt><trkpt lat="51.8402877823" lon="-2.0780048892"><ele>282.28</ele><time>2015-05-27T10:49:45Z</time></trkpt><trkpt lat="51.8403135147" lon="-2.0781920571"><ele>280.36</ele><time>2015-05-27T10:49:57Z</time></trkpt><trkpt lat="51.8403151911" lon="-2.0782050490"><ele>284.69</ele><time>2015-05-27T10:49:58Z</time></trkpt><trkpt lat="51.8403238244" lon="-2.0782494731"><ele>281.32</ele><time>2015-05-27T10:50:01Z</time></trkpt><trkpt lat="51.8403267581" lon="-2.0782642253"><ele>282.77</ele><time>2015-05-27T10:50:02Z</time></trkpt><trkpt lat="51.8403298594" lon="-2.0782896224"><ele>286.13</ele><time>2015-05-27T10:50:04Z</time></trkpt><trkpt lat="51.8403336313" lon="-2.0783006866"><ele>284.69</ele><time>2015-05-27T10:50:05Z</time></trkpt><trkpt lat="51.8403390795" lon="-2.0783329569"><ele>283.73</ele><time>2015-05-27T10:50:07Z</time></trkpt><trkpt lat="51.8403628841" lon="-2.0784829091"><ele>285.17</ele><time>2015-05-27T10:50:16Z</time></trkpt><trkpt lat="51.8403653149" lon="-2.0784959849"><ele>281.32</ele><time>2015-05-27T10:50:17Z</time></trkpt><trkpt lat="51.8403669912" lon="-2.0785136707"><ele>282.77</ele><time>2015-05-27T10:50:18Z</time></trkpt><trkpt lat="51.8403770495" lon="-2.0785696618"><ele>286.13</ele><time>2015-05-27T10:50:21Z</time></trkpt><trkpt lat="51.8403855152" lon="-2.0786111522"><ele>282.77</ele><time>2015-05-27T10:50:24Z</time></trkpt><trkpt lat="51.8403918017" lon="-2.0786588453"><ele>284.69</ele><time>2015-05-27T10:50:27Z</time></trkpt><trkpt lat="51.8403953221" lon="-2.0786772855"><ele>288.05</ele><time>2015-05-27T10:50:28Z</time></trkpt><trkpt lat="51.8403998483" lon="-2.0786896907"><ele>284.69</ele><time>2015-05-27T10:50:29Z</time></trkpt><trkpt lat="51.8404021952" lon="-2.0787013415"><ele>280.84</ele><time>2015-05-27T10:50:30Z</time></trkpt><trkpt lat="51.8404033687" lon="-2.0787170157"><ele>283.25</ele><time>2015-05-27T10:50:31Z</time></trkpt><trkpt lat="51.8404189590" lon="-2.0788357034"><ele>281.32</ele><time>2015-05-27T10:50:38Z</time></trkpt><trkpt lat="51.8404249940" lon="-2.0788734220"><ele>285.17</ele><time>2015-05-27T10:50:40Z</time></trkpt><trkpt lat="51.8404291011" lon="-2.0788917784"><ele>288.53</ele><time>2015-05-27T10:50:41Z</time></trkpt><trkpt lat="51.8404306099" lon="-2.0789062791"><ele>283.73</ele><time>2015-05-27T10:50:42Z</time></trkpt><trkpt lat="51.8404570129" lon="-2.0791120548"><ele>282.28</ele><time>2015-05-27T10:50:56Z</time></trkpt><trkpt lat="51.8404570129" lon="-2.0791283995"><ele>285.65</ele><time>2015-05-27T10:50:57Z</time></trkpt><trkpt lat="51.8404628802" lon="-2.0791903418"><ele>285.65</ele><time>2015-05-27T10:51:01Z</time></trkpt><trkpt lat="51.8404593598" lon="-2.0792055968"><ele>281.32</ele><time>2015-05-27T10:51:02Z</time></trkpt><trkpt lat="51.8404575158" lon="-2.0792217739"><ele>284.69</ele><time>2015-05-27T10:51:03Z</time></trkpt><trkpt lat="51.8404656462" lon="-2.0792601630"><ele>281.32</ele><time>2015-05-27T10:51:06Z</time></trkpt><trkpt lat="51.8404667359" lon="-2.0792726520"><ele>285.17</ele><time>2015-05-27T10:51:07Z</time></trkpt><trkpt lat="51.8404796440" lon="-2.0793676190"><ele>284.69</ele><time>2015-05-27T10:51:15Z</time></trkpt><trkpt lat="51.8405021075" lon="-2.0795476623"><ele>285.17</ele><time>2015-05-27T10:51:28Z</time></trkpt><trkpt lat="51.8405138422" lon="-2.0797061641"><ele>285.65</ele><time>2015-05-27T10:51:40Z</time></trkpt><trkpt lat="51.8405218050" lon="-2.0797744766"><ele>286.13</ele><time>2015-05-27T10:51:45Z</time></trkpt><trkpt lat="51.8405213859" lon="-2.0797866303"><ele>282.28</ele><time>2015-05-27T10:51:46Z</time></trkpt><trkpt lat="51.8405233137" lon="-2.0798027236"><ele>284.21</ele><time>2015-05-27T10:51:47Z</time></trkpt><trkpt lat="51.8405256607" lon="-2.0798371732"><ele>288.05</ele><time>2015-05-27T10:51:49Z</time></trkpt><trkpt lat="51.8405257445" lon="-2.0798528474"><ele>282.77</ele><time>2015-05-27T10:51:50Z</time></trkpt><trkpt lat="51.8405266665" lon="-2.0798687730"><ele>286.61</ele><time>2015-05-27T10:51:51Z</time></trkpt><trkpt lat="51.8405288458" lon="-2.0798835251"><ele>283.73</ele><time>2015-05-27T10:51:52Z</time></trkpt><trkpt lat="51.8405306898" lon="-2.0799125265"><ele>287.57</ele><time>2015-05-27T10:51:54Z</time></trkpt><trkpt lat="51.8405311089" lon="-2.0799262729"><ele>286.13</ele><time>2015-05-27T10:51:55Z</time></trkpt><trkpt lat="51.8405330367" lon="-2.0799387619"><ele>283.25</ele><time>2015-05-27T10:51:56Z</time></trkpt><trkpt lat="51.8405332044" lon="-2.0799529273"><ele>285.17</ele><time>2015-05-27T10:51:57Z</time></trkpt><trkpt lat="51.8405243196" lon="-2.0800343156"><ele>284.69</ele><time>2015-05-27T10:52:02Z</time></trkpt><trkpt lat="51.8405511416" lon="-2.0802585315"><ele>285.65</ele><time>2015-05-27T10:52:20Z</time></trkpt><trkpt lat="51.8405803107" lon="-2.0804197155"><ele>287.09</ele><time>2015-05-27T10:52:31Z</time></trkpt><trkpt lat="51.8405816518" lon="-2.0804432686"><ele>283.73</ele><time>2015-05-27T10:52:33Z</time></trkpt><trkpt lat="51.8405842502" lon="-2.0804808196"><ele>287.09</ele><time>2015-05-27T10:52:35Z</time></trkpt><trkpt lat="51.8405837473" lon="-2.0805269200"><ele>284.21</ele><time>2015-05-27T10:52:37Z</time></trkpt><trkpt lat="51.8405845854" lon="-2.0805423427"><ele>285.65</ele><time>2015-05-27T10:52:38Z</time></trkpt><trkpt lat="51.8406025227" lon="-2.0806327835"><ele>282.28</ele><time>2015-05-27T10:52:43Z</time></trkpt><trkpt lat="51.8406105693" lon="-2.0806538220"><ele>285.65</ele><time>2015-05-27T10:52:44Z</time></trkpt><trkpt lat="51.8406230584" lon="-2.0807194524"><ele>282.28</ele><time>2015-05-27T10:52:48Z</time></trkpt><trkpt lat="51.8406268302" lon="-2.0807417482"><ele>285.65</ele><time>2015-05-27T10:52:49Z</time></trkpt><trkpt lat="51.8406381458" lon="-2.0808562450"><ele>282.77</ele><time>2015-05-27T10:52:55Z</time></trkpt><trkpt lat="51.8406410795" lon="-2.0808748528"><ele>285.65</ele><time>2015-05-27T10:52:56Z</time></trkpt><trkpt lat="51.8406607769" lon="-2.0809528045"><ele>286.13</ele><time>2015-05-27T10:53:01Z</time></trkpt><trkpt lat="51.8406993337" lon="-2.0811526291"><ele>284.69</ele><time>2015-05-27T10:53:17Z</time></trkpt><trkpt lat="51.8407233898" lon="-2.0814352669"><ele>287.09</ele><time>2015-05-27T10:53:36Z</time></trkpt><trkpt lat="51.8407234736" lon="-2.0814483427"><ele>283.73</ele><time>2015-05-27T10:53:37Z</time></trkpt><trkpt lat="51.8407270778" lon="-2.0814752486"><ele>291.42</ele><time>2015-05-27T10:53:39Z</time></trkpt><trkpt lat="51.8407301791" lon="-2.0814918447"><ele>285.65</ele><time>2015-05-27T10:53:40Z</time></trkpt><trkpt lat="51.8407329451" lon="-2.0815069322"><ele>282.77</ele><time>2015-05-27T10:53:41Z</time></trkpt><trkpt lat="51.8407305144" lon="-2.0815214328"><ele>286.61</ele><time>2015-05-27T10:53:42Z</time></trkpt><trkpt lat="51.8407326099" lon="-2.0816015638"><ele>289.97</ele><time>2015-05-27T10:53:47Z</time></trkpt><trkpt lat="51.8407326099" lon="-2.0816155616"><ele>285.17</ele><time>2015-05-27T10:53:48Z</time></trkpt><trkpt lat="51.8407558277" lon="-2.0818380173"><ele>285.65</ele><time>2015-05-27T10:54:00Z</time></trkpt><trkpt lat="51.8407613598" lon="-2.0818820223"><ele>283.25</ele><time>2015-05-27T10:54:03Z</time></trkpt><trkpt lat="51.8407631200" lon="-2.0819475688"><ele>289.01</ele><time>2015-05-27T10:54:07Z</time></trkpt><trkpt lat="51.8407658860" lon="-2.0819657575"><ele>284.21</ele><time>2015-05-27T10:54:08Z</time></trkpt><trkpt lat="51.8407679815" lon="-2.0819802582"><ele>291.42</ele><time>2015-05-27T10:54:09Z</time></trkpt><trkpt lat="51.8407700770" lon="-2.0819969382"><ele>285.65</ele><time>2015-05-27T10:54:10Z</time></trkpt><trkpt lat="51.8407726754" lon="-2.0820152108"><ele>278.44</ele><time>2015-05-27T10:54:11Z</time></trkpt><trkpt lat="51.8407734297" lon="-2.0820325613"><ele>284.69</ele><time>2015-05-27T10:54:12Z</time></trkpt><trkpt lat="51.8407750223" lon="-2.0820851158"><ele>287.09</ele><time>2015-05-27T10:54:15Z</time></trkpt><trkpt lat="51.8407681491" lon="-2.0821122732"><ele>286.13</ele><time>2015-05-27T10:54:17Z</time></trkpt><trkpt lat="51.8407637905" lon="-2.0821603015"><ele>280.84</ele><time>2015-05-27T10:54:20Z</time></trkpt><trkpt lat="51.8407678977" lon="-2.0821720362"><ele>286.13</ele><time>2015-05-27T10:54:21Z</time></trkpt><trkpt lat="51.8407699931" lon="-2.0821866207"><ele>279.88</ele><time>2015-05-27T10:54:22Z</time></trkpt><trkpt lat="51.8407724239" lon="-2.0822022110"><ele>284.69</ele><time>2015-05-27T10:54:23Z</time></trkpt><trkpt lat="51.8407772854" lon="-2.0822545141"><ele>286.13</ele><time>2015-05-27T10:54:26Z</time></trkpt><trkpt lat="51.8407799676" lon="-2.0822680928"><ele>280.84</ele><time>2015-05-27T10:54:27Z</time></trkpt><trkpt lat="51.8407837395" lon="-2.0822836831"><ele>284.21</ele><time>2015-05-27T10:54:28Z</time></trkpt><trkpt lat="51.8407992460" lon="-2.0825041272"><ele>283.25</ele><time>2015-05-27T10:54:40Z</time></trkpt><trkpt lat="51.8407988269" lon="-2.0825642254"><ele>284.69</ele><time>2015-05-27T10:54:43Z</time></trkpt><trkpt lat="51.8408104777" lon="-2.0826496370"><ele>283.73</ele><time>2015-05-27T10:54:49Z</time></trkpt><trkpt lat="51.8408205360" lon="-2.0826829132"><ele>284.69</ele><time>2015-05-27T10:54:51Z</time></trkpt><trkpt lat="51.8408217933" lon="-2.0827764552"><ele>284.69</ele><time>2015-05-27T10:54:56Z</time></trkpt><trkpt lat="51.8408254813" lon="-2.0828443486"><ele>285.17</ele><time>2015-05-27T10:55:00Z</time></trkpt><trkpt lat="51.8408336118" lon="-2.0828922093"><ele>282.77</ele><time>2015-05-27T10:55:03Z</time></trkpt><trkpt lat="51.8408366293" lon="-2.0829254854"><ele>284.21</ele><time>2015-05-27T10:55:05Z</time></trkpt><trkpt lat="51.8408453465" lon="-2.0829847455"><ele>282.77</ele><time>2015-05-27T10:55:09Z</time></trkpt><trkpt lat="51.8408591766" lon="-2.0831617713"><ele>282.28</ele><time>2015-05-27T10:55:18Z</time></trkpt><trkpt lat="51.8408651277" lon="-2.0831904374"><ele>283.25</ele><time>2015-05-27T10:55:20Z</time></trkpt><trkpt lat="51.8408963922" lon="-2.0832237136"><ele>281.80</ele><time>2015-05-27T10:55:24Z</time></trkpt><trkpt lat="51.8409031816" lon="-2.0832248870"><ele>281.80</ele><time>2015-05-27T10:55:25Z</time></trkpt><trkpt lat="51.8409046065" lon="-2.0832235459"><ele>282.77</ele><time>2015-05-27T10:55:32Z</time></trkpt><trkpt lat="51.8409120664" lon="-2.0832122304"><ele>282.77</ele><time>2015-05-27T10:55:50Z</time></trkpt><trkpt lat="51.8409172632" lon="-2.0832114760"><ele>283.25</ele><time>2015-05-27T10:56:18Z</time></trkpt><trkpt lat="51.8409187719" lon="-2.0832148287"><ele>283.25</ele><time>2015-05-27T10:56:55Z</time></trkpt><trkpt lat="51.8409139942" lon="-2.0832163375"><ele>282.77</ele><time>2015-05-27T10:57:28Z</time></trkpt><trkpt lat="51.8409124855" lon="-2.0832144096"><ele>278.44</ele><time>2015-05-27T10:57:41Z</time></trkpt><trkpt lat="51.8409122340" lon="-2.0832141582"><ele>283.73</ele><time>2015-05-27T10:57:42Z</time></trkpt><trkpt lat="51.8409119826" lon="-2.0832141582"><ele>283.25</ele><time>2015-05-27T10:57:43Z</time></trkpt><trkpt lat="51.8409120664" lon="-2.0832145773"><ele>289.97</ele><time>2015-05-27T10:57:47Z</time></trkpt><trkpt lat="51.8409120664" lon="-2.0832139067"><ele>281.80</ele><time>2015-05-27T10:57:48Z</time></trkpt><trkpt lat="51.8409120664" lon="-2.0832139067"><ele>283.73</ele><time>2015-05-27T10:57:49Z</time></trkpt><trkpt lat="51.8409114797" lon="-2.0832138229"><ele>273.63</ele><time>2015-05-27T10:57:51Z</time></trkpt><trkpt lat="51.8409087136" lon="-2.0832714066"><ele>286.61</ele><time>2015-05-27T10:57:54Z</time></trkpt><trkpt lat="51.8409103062" lon="-2.0832895115"><ele>283.25</ele><time>2015-05-27T10:57:55Z</time></trkpt><trkpt lat="51.8409119826" lon="-2.0833010785"><ele>279.40</ele><time>2015-05-27T10:57:56Z</time></trkpt><trkpt lat="51.8409082107" lon="-2.0833310857"><ele>279.88</ele><time>2015-05-27T10:57:58Z</time></trkpt><trkpt lat="51.8408999965" lon="-2.0833714865"><ele>284.21</ele><time>2015-05-27T10:58:00Z</time></trkpt><trkpt lat="51.8408979010" lon="-2.0833944529"><ele>283.25</ele><time>2015-05-27T10:58:01Z</time></trkpt><trkpt lat="51.8408984039" lon="-2.0834566467"><ele>279.40</ele><time>2015-05-27T10:58:05Z</time></trkpt><trkpt lat="51.8409000803" lon="-2.0834741648"><ele>279.88</ele><time>2015-05-27T10:58:06Z</time></trkpt><trkpt lat="51.8409078754" lon="-2.0835144818"><ele>282.28</ele><time>2015-05-27T10:58:08Z</time></trkpt><trkpt lat="51.8409176823" lon="-2.0835924335"><ele>279.40</ele><time>2015-05-27T10:58:11Z</time></trkpt><trkpt lat="51.8409233820" lon="-2.0836609136"><ele>282.77</ele><time>2015-05-27T10:58:14Z</time></trkpt><trkpt lat="51.8409269024" lon="-2.0836832933"><ele>282.77</ele><time>2015-05-27T10:58:15Z</time></trkpt><trkpt lat="51.8409348652" lon="-2.0837610774"><ele>284.21</ele><time>2015-05-27T10:58:18Z</time></trkpt><trkpt lat="51.8409987353" lon="-2.0841533504"><ele>281.32</ele><time>2015-05-27T10:58:33Z</time></trkpt><trkpt lat="51.8410455063" lon="-2.0843828470"><ele>278.44</ele><time>2015-05-27T10:58:44Z</time></trkpt><trkpt lat="51.8410426565" lon="-2.0844271034"><ele>281.80</ele><time>2015-05-27T10:58:47Z</time></trkpt><trkpt lat="51.8410419859" lon="-2.0844672527"><ele>277.48</ele><time>2015-05-27T10:58:50Z</time></trkpt><trkpt lat="51.8410406448" lon="-2.0844975114"><ele>276.52</ele><time>2015-05-27T10:58:52Z</time></trkpt><trkpt lat="51.8410391361" lon="-2.0845325477"><ele>278.44</ele><time>2015-05-27T10:58:54Z</time></trkpt><trkpt lat="51.8409915268" lon="-2.0846350584"><ele>272.67</ele><time>2015-05-27T10:58:59Z</time></trkpt><trkpt lat="51.8409739248" lon="-2.0846516546"><ele>274.59</ele><time>2015-05-27T10:59:00Z</time></trkpt><trkpt lat="51.8409517128" lon="-2.0846592821"><ele>275.56</ele><time>2015-05-27T10:59:01Z</time></trkpt><trkpt lat="51.8408892676" lon="-2.0847072266"><ele>278.44</ele><time>2015-05-27T10:59:05Z</time></trkpt><trkpt lat="51.8408118188" lon="-2.0847810712"><ele>273.63</ele><time>2015-05-27T10:59:11Z</time></trkpt><trkpt lat="51.8408005871" lon="-2.0847920515"><ele>275.07</ele><time>2015-05-27T10:59:12Z</time></trkpt><trkpt lat="51.8407824822" lon="-2.0848197956"><ele>277.00</ele><time>2015-05-27T10:59:14Z</time></trkpt><trkpt lat="51.8406738527" lon="-2.0849787164"><ele>274.11</ele><time>2015-05-27T10:59:23Z</time></trkpt><trkpt lat="51.8406627048" lon="-2.0849984977"><ele>275.56</ele><time>2015-05-27T10:59:24Z</time></trkpt><trkpt lat="51.8406262435" lon="-2.0850774553"><ele>275.56</ele><time>2015-05-27T10:59:28Z</time></trkpt><trkpt lat="51.8405265827" lon="-2.0852813032"><ele>275.07</ele><time>2015-05-27T10:59:40Z</time></trkpt><trkpt lat="51.8405042868" lon="-2.0853191055"><ele>273.63</ele><time>2015-05-27T10:59:42Z</time></trkpt><trkpt lat="51.8404534087" lon="-2.0854296628"><ele>277.48</ele><time>2015-05-27T10:59:48Z</time></trkpt><trkpt lat="51.8404387403" lon="-2.0854795352"><ele>273.63</ele><time>2015-05-27T10:59:51Z</time></trkpt><trkpt lat="51.8404329568" lon="-2.0854914375"><ele>277.00</ele><time>2015-05-27T10:59:52Z</time></trkpt><trkpt lat="51.8404130917" lon="-2.0855382923"><ele>272.67</ele><time>2015-05-27T10:59:55Z</time></trkpt><trkpt lat="51.8403946515" lon="-2.0855930261"><ele>275.56</ele><time>2015-05-27T10:59:58Z</time></trkpt><trkpt lat="51.8403679132" lon="-2.0856532920"><ele>272.19</ele><time>2015-05-27T11:00:02Z</time></trkpt><trkpt lat="51.8403570168" lon="-2.0856626797"><ele>277.48</ele><time>2015-05-27T11:00:03Z</time></trkpt><trkpt lat="51.8403342180" lon="-2.0856889151"><ele>273.63</ele><time>2015-05-27T11:00:05Z</time></trkpt><trkpt lat="51.8403089885" lon="-2.0857337583"><ele>275.56</ele><time>2015-05-27T11:00:08Z</time></trkpt><trkpt lat="51.8403158616" lon="-2.0857317466"><ele>276.04</ele><time>2015-05-27T11:00:36Z</time></trkpt><trkpt lat="51.8403129280" lon="-2.0857970417"><ele>276.04</ele><time>2015-05-27T11:00:49Z</time></trkpt><trkpt lat="51.8402138539" lon="-2.0860448107"><ele>277.00</ele><time>2015-05-27T11:01:04Z</time></trkpt><trkpt lat="51.8401808292" lon="-2.0860867202"><ele>276.04</ele><time>2015-05-27T11:01:08Z</time></trkpt><trkpt lat="51.8401657417" lon="-2.0861241873"><ele>277.48</ele><time>2015-05-27T11:01:10Z</time></trkpt><trkpt lat="51.8401555158" lon="-2.0861754846"><ele>277.00</ele><time>2015-05-27T11:01:26Z</time></trkpt><trkpt lat="51.8400716130" lon="-2.0863248501"><ele>278.44</ele><time>2015-05-27T11:01:36Z</time></trkpt><trkpt lat="51.8400424439" lon="-2.0864302944"><ele>276.52</ele><time>2015-05-27T11:01:42Z</time></trkpt><trkpt lat="51.8400175497" lon="-2.0865345653"><ele>280.36</ele><time>2015-05-27T11:01:47Z</time></trkpt><trkpt lat="51.8400093354" lon="-2.0865582861"><ele>279.88</ele><time>2015-05-27T11:01:48Z</time></trkpt><trkpt lat="51.8399432022" lon="-2.0867073163"><ele>277.00</ele><time>2015-05-27T11:01:55Z</time></trkpt><trkpt lat="51.8399253488" lon="-2.0867410116"><ele>280.36</ele><time>2015-05-27T11:01:57Z</time></trkpt><trkpt lat="51.8399134465" lon="-2.0867586136"><ele>278.92</ele><time>2015-05-27T11:01:58Z</time></trkpt><trkpt lat="51.8398979399" lon="-2.0867813285"><ele>277.48</ele><time>2015-05-27T11:02:00Z</time></trkpt><trkpt lat="51.8398344051" lon="-2.0868926402"><ele>278.92</ele><time>2015-05-27T11:02:06Z</time></trkpt><trkpt lat="51.8398192339" lon="-2.0869462844"><ele>275.07</ele><time>2015-05-27T11:02:09Z</time></trkpt><trkpt lat="51.8397951778" lon="-2.0869793929"><ele>278.92</ele><time>2015-05-27T11:02:11Z</time></trkpt><trkpt lat="51.8397802580" lon="-2.0870017726"><ele>278.92</ele><time>2015-05-27T11:02:12Z</time></trkpt><trkpt lat="51.8396900687" lon="-2.0872110687"><ele>282.28</ele><time>2015-05-27T11:02:23Z</time></trkpt><trkpt lat="51.8396556191" lon="-2.0872958936"><ele>277.48</ele><time>2015-05-27T11:02:27Z</time></trkpt><trkpt lat="51.8396344129" lon="-2.0873388927"><ele>275.56</ele><time>2015-05-27T11:02:30Z</time></trkpt><trkpt lat="51.8396254443" lon="-2.0873541478"><ele>275.56</ele><time>2015-05-27T11:02:31Z</time></trkpt><trkpt lat="51.8396090996" lon="-2.0873927884"><ele>280.36</ele><time>2015-05-27T11:02:33Z</time></trkpt><trkpt lat="51.8395983707" lon="-2.0874143299"><ele>279.40</ele><time>2015-05-27T11:02:34Z</time></trkpt><trkpt lat="51.8395019788" lon="-2.0876249671"><ele>282.77</ele><time>2015-05-27T11:02:44Z</time></trkpt><trkpt lat="51.8394495081" lon="-2.0877159107"><ele>281.80</ele><time>2015-05-27T11:02:49Z</time></trkpt><trkpt lat="51.8394400366" lon="-2.0877448283"><ele>277.96</ele><time>2015-05-27T11:02:51Z</time></trkpt><trkpt lat="51.8393536191" lon="-2.0879208483"><ele>281.80</ele><time>2015-05-27T11:03:01Z</time></trkpt><trkpt lat="51.8393355142" lon="-2.0879449882"><ele>278.44</ele><time>2015-05-27T11:03:03Z</time></trkpt><trkpt lat="51.8393086083" lon="-2.0879934356"><ele>279.88</ele><time>2015-05-27T11:03:06Z</time></trkpt><trkpt lat="51.8391194288" lon="-2.0883038174"><ele>280.84</ele><time>2015-05-27T11:03:26Z</time></trkpt><trkpt lat="51.8389803730" lon="-2.0884928294"><ele>282.28</ele><time>2015-05-27T11:03:42Z</time></trkpt><trkpt lat="51.8388109747" lon="-2.0887164585"><ele>283.25</ele><time>2015-05-27T11:03:57Z</time></trkpt><trkpt lat="51.8386142515" lon="-2.0890461188"><ele>284.21</ele><time>2015-05-27T11:04:17Z</time></trkpt><trkpt lat="51.8386064563" lon="-2.0890550874"><ele>283.73</ele><time>2015-05-27T11:04:18Z</time></trkpt><trkpt lat="51.8385107350" lon="-2.0891701709"><ele>283.25</ele><time>2015-05-27T11:04:30Z</time></trkpt><trkpt lat="51.8382639717" lon="-2.0894478634"><ele>285.17</ele><time>2015-05-27T11:04:49Z</time></trkpt><trkpt lat="51.8382340483" lon="-2.0894968137"><ele>283.73</ele><time>2015-05-27T11:04:52Z</time></trkpt><trkpt lat="51.8380834255" lon="-2.0897622686"><ele>286.13</ele><time>2015-05-27T11:05:09Z</time></trkpt><trkpt lat="51.8379995227" lon="-2.0899419766"><ele>286.61</ele><time>2015-05-27T11:05:21Z</time></trkpt><trkpt lat="51.8378796615" lon="-2.0901921764"><ele>286.13</ele><time>2015-05-27T11:05:37Z</time></trkpt><trkpt lat="51.8377646618" lon="-2.0904240198"><ele>287.09</ele><time>2015-05-27T11:05:53Z</time></trkpt><trkpt lat="51.8377613090" lon="-2.0904356707"><ele>287.09</ele><time>2015-05-27T11:05:54Z</time></trkpt><trkpt lat="51.8376651686" lon="-2.0906453021"><ele>288.53</ele><time>2015-05-27T11:06:09Z</time></trkpt><trkpt lat="51.8375743926" lon="-2.0908872876"><ele>288.53</ele><time>2015-05-27T11:06:22Z</time></trkpt><trkpt lat="51.8374971114" lon="-2.0911217295"><ele>290.94</ele><time>2015-05-27T11:06:37Z</time></trkpt><trkpt lat="51.8374879751" lon="-2.0911517367"><ele>289.97</ele><time>2015-05-27T11:06:39Z</time></trkpt><trkpt lat="51.8374503404" lon="-2.0913948957"><ele>290.46</ele><time>2015-05-27T11:06:54Z</time></trkpt><trkpt lat="51.8373888172" lon="-2.0916332770"><ele>291.90</ele><time>2015-05-27T11:07:08Z</time></trkpt><trkpt lat="51.8372864742" lon="-2.0919394679"><ele>291.90</ele><time>2015-05-27T11:07:28Z</time></trkpt><trkpt lat="51.8372226041" lon="-2.0921981335"><ele>291.90</ele><time>2015-05-27T11:07:44Z</time></trkpt><trkpt lat="51.8372110371" lon="-2.0922286436"><ele>292.86</ele><time>2015-05-27T11:07:46Z</time></trkpt><trkpt lat="51.8371993862" lon="-2.0923806913"><ele>293.34</ele><time>2015-05-27T11:08:01Z</time></trkpt><trkpt lat="51.8371977936" lon="-2.0924074296"><ele>292.86</ele><time>2015-05-27T11:08:04Z</time></trkpt><trkpt lat="51.8371702172" lon="-2.0925020613"><ele>292.38</ele><time>2015-05-27T11:08:09Z</time></trkpt><trkpt lat="51.8371123821" lon="-2.0928294584"><ele>293.34</ele><time>2015-05-27T11:08:26Z</time></trkpt><trkpt lat="51.8370351009" lon="-2.0930913929"><ele>292.86</ele><time>2015-05-27T11:08:41Z</time></trkpt><trkpt lat="51.8369528744" lon="-2.0933575183"><ele>294.78</ele><time>2015-05-27T11:08:55Z</time></trkpt><trkpt lat="51.8368571531" lon="-2.0935901161"><ele>297.18</ele><time>2015-05-27T11:09:08Z</time></trkpt><trkpt lat="51.8368378747" lon="-2.0936198719"><ele>293.82</ele><time>2015-05-27T11:09:10Z</time></trkpt><trkpt lat="51.8368267268" lon="-2.0936325286"><ele>294.30</ele><time>2015-05-27T11:09:11Z</time></trkpt><trkpt lat="51.8368108850" lon="-2.0936558302"><ele>293.82</ele><time>2015-05-27T11:09:13Z</time></trkpt><trkpt lat="51.8367651198" lon="-2.0937465224"><ele>286.61</ele><time>2015-05-27T11:09:22Z</time></trkpt><trkpt lat="51.8367578276" lon="-2.0937486179"><ele>296.22</ele><time>2015-05-27T11:09:23Z</time></trkpt><trkpt lat="51.8367337715" lon="-2.0937804691"><ele>294.30</ele><time>2015-05-27T11:09:26Z</time></trkpt><trkpt lat="51.8367264792" lon="-2.0937902760"><ele>296.70</ele><time>2015-05-27T11:09:27Z</time></trkpt><trkpt lat="51.8366322666" lon="-2.0939740073"><ele>294.78</ele><time>2015-05-27T11:09:41Z</time></trkpt><trkpt lat="51.8364654668" lon="-2.0942560583"><ele>295.26</ele><time>2015-05-27T11:10:04Z</time></trkpt><trkpt lat="51.8364567496" lon="-2.0942713972"><ele>295.26</ele><time>2015-05-27T11:10:05Z</time></trkpt><trkpt lat="51.8364295084" lon="-2.0943352673"><ele>294.78</ele><time>2015-05-27T11:10:09Z</time></trkpt><trkpt lat="51.8363557477" lon="-2.0944766700"><ele>296.70</ele><time>2015-05-27T11:10:20Z</time></trkpt><trkpt lat="51.8363302667" lon="-2.0945180766"><ele>293.34</ele><time>2015-05-27T11:10:24Z</time></trkpt><trkpt lat="51.8363217171" lon="-2.0945288055"><ele>294.78</ele><time>2015-05-27T11:10:25Z</time></trkpt><trkpt lat="51.8362985831" lon="-2.0945648476"><ele>295.74</ele><time>2015-05-27T11:10:28Z</time></trkpt><trkpt lat="51.8362203799" lon="-2.0948375110"><ele>294.78</ele><time>2015-05-27T11:10:49Z</time></trkpt><trkpt lat="51.8362198770" lon="-2.0948804263"><ele>293.34</ele><time>2015-05-27T11:10:52Z</time></trkpt><trkpt lat="51.8361865170" lon="-2.0949263591"><ele>296.22</ele><time>2015-05-27T11:10:56Z</time></trkpt><trkpt lat="51.8361560069" lon="-2.0950112678"><ele>294.30</ele><time>2015-05-27T11:11:01Z</time></trkpt><trkpt lat="51.8361298554" lon="-2.0950986072"><ele>293.82</ele><time>2015-05-27T11:11:07Z</time></trkpt><trkpt lat="51.8361245748" lon="-2.0951311290"><ele>295.26</ele><time>2015-05-27T11:11:09Z</time></trkpt><trkpt lat="51.8360933103" lon="-2.0951936580"><ele>293.82</ele><time>2015-05-27T11:11:14Z</time></trkpt><trkpt lat="51.8360758759" lon="-2.0952728670"><ele>295.26</ele><time>2015-05-27T11:11:18Z</time></trkpt><trkpt lat="51.8360690027" lon="-2.0953228232"><ele>293.82</ele><time>2015-05-27T11:11:21Z</time></trkpt><trkpt lat="51.8360662367" lon="-2.0953406766"><ele>293.82</ele><time>2015-05-27T11:11:22Z</time></trkpt><trkpt lat="51.8360467907" lon="-2.0955408365"><ele>295.74</ele><time>2015-05-27T11:11:33Z</time></trkpt><trkpt lat="51.8360415101" lon="-2.0956075564"><ele>294.78</ele><time>2015-05-27T11:11:37Z</time></trkpt><trkpt lat="51.8360408396" lon="-2.0956381503"><ele>295.74</ele><time>2015-05-27T11:11:39Z</time></trkpt><trkpt lat="51.8360337988" lon="-2.0957501326"><ele>294.30</ele><time>2015-05-27T11:11:45Z</time></trkpt><trkpt lat="51.8360219803" lon="-2.0958274137"><ele>292.86</ele><time>2015-05-27T11:11:50Z</time></trkpt><trkpt lat="51.8360163644" lon="-2.0958561637"><ele>296.70</ele><time>2015-05-27T11:11:52Z</time></trkpt><trkpt lat="51.8360058032" lon="-2.0959450956"><ele>293.34</ele><time>2015-05-27T11:11:58Z</time></trkpt><trkpt lat="51.8360041268" lon="-2.0959585905"><ele>294.78</ele><time>2015-05-27T11:11:59Z</time></trkpt><trkpt lat="51.8360019475" lon="-2.0959778689"><ele>296.70</ele><time>2015-05-27T11:12:00Z</time></trkpt><trkpt lat="51.8359939847" lon="-2.0960220415"><ele>294.30</ele><time>2015-05-27T11:12:03Z</time></trkpt><trkpt lat="51.8359815795" lon="-2.0960495342"><ele>300.55</ele><time>2015-05-27T11:12:05Z</time></trkpt><trkpt lat="51.8359787297" lon="-2.0960595924"><ele>293.34</ele><time>2015-05-27T11:12:06Z</time></trkpt><trkpt lat="51.8359762989" lon="-2.0960716624"><ele>294.30</ele><time>2015-05-27T11:12:07Z</time></trkpt><trkpt lat="51.8359760474" lon="-2.0960826427"><ele>298.15</ele><time>2015-05-27T11:12:08Z</time></trkpt><trkpt lat="51.8359764665" lon="-2.0960864145"><ele>295.74</ele><time>2015-05-27T11:12:09Z</time></trkpt><trkpt lat="51.8359819986" lon="-2.0960995741"><ele>299.59</ele><time>2015-05-27T11:12:12Z</time></trkpt><trkpt lat="51.8359827530" lon="-2.0961113926"><ele>294.30</ele><time>2015-05-27T11:12:13Z</time></trkpt><trkpt lat="51.8359835912" lon="-2.0961517934"><ele>298.15</ele><time>2015-05-27T11:12:16Z</time></trkpt><trkpt lat="51.8359811604" lon="-2.0961671323"><ele>295.26</ele><time>2015-05-27T11:12:17Z</time></trkpt><trkpt lat="51.8359771371" lon="-2.0961781964"><ele>296.22</ele><time>2015-05-27T11:12:18Z</time></trkpt><trkpt lat="51.8359702639" lon="-2.0962381270"><ele>298.15</ele><time>2015-05-27T11:12:22Z</time></trkpt><trkpt lat="51.8359448668" lon="-2.0964136440"><ele>298.15</ele><time>2015-05-27T11:12:33Z</time></trkpt><trkpt lat="51.8359354790" lon="-2.0964429807"><ele>296.70</ele><time>2015-05-27T11:12:35Z</time></trkpt><trkpt lat="51.8359195534" lon="-2.0965262968"><ele>296.70</ele><time>2015-05-27T11:12:40Z</time></trkpt><trkpt lat="51.8358988501" lon="-2.0966377761"><ele>297.18</ele><time>2015-05-27T11:12:47Z</time></trkpt><trkpt lat="51.8358680885" lon="-2.0968340803"><ele>297.67</ele><time>2015-05-27T11:12:59Z</time></trkpt><trkpt lat="51.8358646519" lon="-2.0968711283"><ele>301.03</ele><time>2015-05-27T11:13:01Z</time></trkpt><trkpt lat="51.8358616345" lon="-2.0969008002"><ele>295.74</ele><time>2015-05-27T11:13:03Z</time></trkpt><trkpt lat="51.8358577788" lon="-2.0969135407"><ele>298.15</ele><time>2015-05-27T11:13:04Z</time></trkpt><trkpt lat="51.8358351476" lon="-2.0970230922"><ele>298.63</ele><time>2015-05-27T11:13:11Z</time></trkpt><trkpt lat="51.8358259276" lon="-2.0970800892"><ele>300.07</ele><time>2015-05-27T11:13:14Z</time></trkpt><trkpt lat="51.8358248379" lon="-2.0970916562"><ele>296.70</ele><time>2015-05-27T11:13:15Z</time></trkpt><trkpt lat="51.8358229939" lon="-2.0971026365"><ele>298.15</ele><time>2015-05-27T11:13:16Z</time></trkpt><trkpt lat="51.8358162045" lon="-2.0971334819"><ele>297.67</ele><time>2015-05-27T11:13:18Z</time></trkpt><trkpt lat="51.8358080741" lon="-2.0972069912"><ele>298.63</ele><time>2015-05-27T11:13:23Z</time></trkpt><trkpt lat="51.8358016200" lon="-2.0972432848"><ele>300.07</ele><time>2015-05-27T11:13:25Z</time></trkpt><trkpt lat="51.8357958365" lon="-2.0972738788"><ele>299.59</ele><time>2015-05-27T11:13:27Z</time></trkpt><trkpt lat="51.8357936572" lon="-2.0973076578"><ele>299.11</ele><time>2015-05-27T11:13:29Z</time></trkpt><trkpt lat="51.8357887957" lon="-2.0973696001"><ele>298.63</ele><time>2015-05-27T11:13:33Z</time></trkpt><trkpt lat="51.8357707746" lon="-2.0974463783"><ele>298.15</ele><time>2015-05-27T11:13:38Z</time></trkpt><trkpt lat="51.8357582018" lon="-2.0976008568"><ele>301.03</ele><time>2015-05-27T11:13:47Z</time></trkpt><trkpt lat="51.8357309606" lon="-2.0978240669"><ele>301.03</ele><time>2015-05-27T11:14:01Z</time></trkpt><trkpt lat="51.8356981874" lon="-2.0980520546"><ele>301.03</ele><time>2015-05-27T11:14:16Z</time></trkpt><trkpt lat="51.8356553558" lon="-2.0982776955"><ele>301.03</ele><time>2015-05-27T11:14:30Z</time></trkpt><trkpt lat="51.8356114347" lon="-2.0984961279"><ele>301.51</ele><time>2015-05-27T11:14:44Z</time></trkpt><trkpt lat="51.8355490733" lon="-2.0987236965"><ele>302.47</ele><time>2015-05-27T11:14:58Z</time></trkpt><trkpt lat="51.8355204072" lon="-2.0988335833"><ele>301.03</ele><time>2015-05-27T11:15:06Z</time></trkpt><trkpt lat="51.8355142884" lon="-2.0988614112"><ele>301.51</ele><time>2015-05-27T11:15:08Z</time></trkpt><trkpt lat="51.8354857899" lon="-2.0990775805"><ele>301.03</ele><time>2015-05-27T11:15:22Z</time></trkpt><trkpt lat="51.8354769051" lon="-2.0992593002"><ele>299.59</ele><time>2015-05-27T11:15:34Z</time></trkpt><trkpt lat="51.8354738876" lon="-2.0992956776"><ele>301.03</ele><time>2015-05-27T11:15:36Z</time></trkpt><trkpt lat="51.8354695290" lon="-2.0993667562"><ele>299.59</ele><time>2015-05-27T11:15:40Z</time></trkpt><trkpt lat="51.8354696129" lon="-2.0993789099"><ele>300.55</ele><time>2015-05-27T11:15:41Z</time></trkpt><trkpt lat="51.8354701996" lon="-2.0995122660"><ele>300.07</ele><time>2015-05-27T11:15:49Z</time></trkpt><trkpt lat="51.8354762346" lon="-2.0995965041"><ele>300.55</ele><time>2015-05-27T11:15:53Z</time></trkpt><trkpt lat="51.8355029728" lon="-2.0998513978"><ele>299.59</ele><time>2015-05-27T11:16:08Z</time></trkpt><trkpt lat="51.8355126958" lon="-2.0999624580"><ele>298.63</ele><time>2015-05-27T11:16:14Z</time></trkpt><trkpt lat="51.8355607241" lon="-2.1000855044"><ele>296.22</ele><time>2015-05-27T11:16:23Z</time></trkpt><trkpt lat="51.8355897255" lon="-2.1001458541"><ele>297.67</ele><time>2015-05-27T11:16:27Z</time></trkpt><trkpt lat="51.8356232531" lon="-2.1002121549"><ele>296.70</ele><time>2015-05-27T11:16:32Z</time></trkpt><trkpt lat="51.8356353231" lon="-2.1002497058"><ele>296.22</ele><time>2015-05-27T11:16:34Z</time></trkpt><trkpt lat="51.8356908951" lon="-2.1003494505"><ele>295.26</ele><time>2015-05-27T11:16:42Z</time></trkpt><trkpt lat="51.8357093353" lon="-2.1004075371"><ele>295.26</ele><time>2015-05-27T11:16:46Z</time></trkpt><trkpt lat="51.8357235007" lon="-2.1004494466"><ele>294.78</ele><time>2015-05-27T11:16:49Z</time></trkpt><trkpt lat="51.8357615545" lon="-2.1004914399"><ele>294.30</ele><time>2015-05-27T11:16:54Z</time></trkpt><trkpt lat="51.8357796595" lon="-2.1006066073"><ele>292.86</ele><time>2015-05-27T11:17:01Z</time></trkpt><trkpt lat="51.8358034641" lon="-2.1007212717"><ele>292.86</ele><time>2015-05-27T11:17:08Z</time></trkpt><trkpt lat="51.8358498160" lon="-2.1008851379"><ele>291.90</ele><time>2015-05-27T11:17:21Z</time></trkpt><trkpt lat="51.8359543383" lon="-2.1010544524"><ele>290.46</ele><time>2015-05-27T11:17:34Z</time></trkpt><trkpt lat="51.8359636422" lon="-2.1010986250"><ele>291.90</ele><time>2015-05-27T11:17:37Z</time></trkpt><trkpt lat="51.8359923083" lon="-2.1011788398"><ele>290.94</ele><time>2015-05-27T11:17:43Z</time></trkpt><trkpt lat="51.8360693380" lon="-2.1014142875"><ele>292.38</ele><time>2015-05-27T11:17:56Z</time></trkpt><trkpt lat="51.8360945676" lon="-2.1015066560"><ele>283.25</ele><time>2015-05-27T11:18:04Z</time></trkpt><trkpt lat="51.8361011054" lon="-2.1015066560"><ele>292.86</ele><time>2015-05-27T11:18:05Z</time></trkpt><trkpt lat="51.8361103255" lon="-2.1015286166"><ele>292.38</ele><time>2015-05-27T11:18:07Z</time></trkpt><trkpt lat="51.8361654785" lon="-2.1015603840"><ele>291.42</ele><time>2015-05-27T11:18:12Z</time></trkpt><trkpt lat="51.8361841701" lon="-2.1015748009"><ele>294.30</ele><time>2015-05-27T11:18:14Z</time></trkpt><trkpt lat="51.8362156861" lon="-2.1016003657"><ele>290.94</ele><time>2015-05-27T11:18:18Z</time></trkpt><trkpt lat="51.8362560030" lon="-2.1015998628"><ele>289.49</ele><time>2015-05-27T11:18:34Z</time></trkpt><trkpt lat="51.8362785503" lon="-2.1015860327"><ele>292.86</ele><time>2015-05-27T11:18:37Z</time></trkpt><trkpt lat="51.8362911232" lon="-2.1015789080"><ele>289.01</ele><time>2015-05-27T11:18:39Z</time></trkpt><trkpt lat="51.8363257404" lon="-2.1015706100"><ele>292.38</ele><time>2015-05-27T11:18:44Z</time></trkpt><trkpt lat="51.8363539875" lon="-2.1015697718"><ele>288.05</ele><time>2015-05-27T11:18:46Z</time></trkpt><trkpt lat="51.8363903649" lon="-2.1015504934"><ele>289.97</ele><time>2015-05-27T11:18:49Z</time></trkpt><trkpt lat="51.8364158459" lon="-2.1015364956"><ele>290.94</ele><time>2015-05-27T11:18:51Z</time></trkpt><trkpt lat="51.8364664726" lon="-2.1015280299"><ele>288.05</ele><time>2015-05-27T11:18:55Z</time></trkpt><trkpt lat="51.8365642894" lon="-2.1015034709"><ele>286.61</ele><time>2015-05-27T11:19:06Z</time></trkpt><trkpt lat="51.8365822267" lon="-2.1014586277"><ele>291.42</ele><time>2015-05-27T11:19:09Z</time></trkpt><trkpt lat="51.8365839031" lon="-2.1014397684"><ele>288.05</ele><time>2015-05-27T11:19:12Z</time></trkpt><trkpt lat="51.8365766946" lon="-2.1014102641"><ele>287.57</ele><time>2015-05-27T11:19:20Z</time></trkpt><trkpt lat="51.8365990743" lon="-2.1013983618"><ele>286.13</ele><time>2015-05-27T11:19:36Z</time></trkpt><trkpt lat="51.8366061989" lon="-2.1013975237"><ele>289.49</ele><time>2015-05-27T11:19:40Z</time></trkpt><trkpt lat="51.8366082106" lon="-2.1013981104"><ele>288.53</ele><time>2015-05-27T11:19:41Z</time></trkpt><trkpt lat="51.8366179336" lon="-2.1014035586"><ele>288.53</ele><time>2015-05-27T11:19:44Z</time></trkpt></trkseg></trk></gpx>